Darstellungsparameter: Aktuell verwendete Einstellungen:
Skalierung der Graphiken ... ?
xyx+y,   Skalierungsfaktor:      Skalierung: Modus: x, Faktor: 1
Darstellungszeitraum ... ?
Vom - - bis: - -   Zeitraum: 09.06.2010 - 22.06.2010
Min/Max/Avg-Anzeige ... ?
Zeige MMA aktuell
Zeige MMA Monat
Zeige MMA alles
Zeige --A aktuell
Zeige --A Monat
Zeige --A alles
Keine MMA-Anzeige
MMA:
Average (ber die Originaldaten)
MMA-Basis: 09.06.2010 - 22.06.2010
Quicknavigation für Darstellung... ?
Tage:      1T, 2T, 3T, 5T -1T -2T -3T -5T +1T +2T +3T +5T
Wochen: 1W, 2W, 3W -1W -2W -3W +1W +2W +3W
Monate: 1M, 3M, 6M -1M -3M -6M +1M +3M +6M
Jahre:    1J, 3J, 5J, 10J -1J -3J -5J -10J +1J +3J +5J +10J
Nutze für die Darstellung ... ?
Originaldaten oder Mittelwerte auf ...
Stundenbasis Tagesbasis Wochenbasis
Monatsbasis Jahresbasis      Datenbasis: Original-Daten
Darstellen als:
Statistik (Auto) Statistik J:M      Darstellung:
Zur Graphik,    zurück zur Übersicht aller Sensoren.
 
Tabellarische Datenbersicht: ?
 
Sensor: Nr:Datum:Temp:Abs-Feuchte:Windchill:Wind:
Aussen-T/F 1 09-06-2010 00:06:42 17.8 C 12.6 g/m*3 17.8 C 0 km/h
2 09-06-2010 00:18:42 17.8 C 12.6 g/m*3 17.8 C 0 km/h
3 09-06-2010 00:30:42 17.7 C 12.52 g/m*3 17.7 C 0 km/h
4 09-06-2010 00:42:42 17.7 C 12.52 g/m*3 17.7 C 0 km/h
5 09-06-2010 00:54:42 17.7 C 12.52 g/m*3 17.7 C 0 km/h
6 09-06-2010 01:06:42 17.7 C 12.52 g/m*3 17.7 C 0 km/h
7 09-06-2010 01:18:42 17.6 C 12.45 g/m*3 17.6 C 0 km/h
8 09-06-2010 01:30:42 17.7 C 12.52 g/m*3 17.7 C 0 km/h
9 09-06-2010 01:42:42 17.7 C 12.22 g/m*3 17.7 C 0 km/h
10 09-06-2010 01:54:42 17.7 C 11.92 g/m*3 17.7 C 0 km/h
11 09-06-2010 02:06:42 17.3 C 11.64 g/m*3 17.3 C 0 km/h
12 09-06-2010 02:18:42 17.1 C 11.79 g/m*3 17.1 C 0 km/h
13 09-06-2010 02:30:42 16.9 C 11.79 g/m*3 16.9 C 0 km/h
14 09-06-2010 02:42:42 17 C 12.01 g/m*3 17 C 0 km/h
15 09-06-2010 02:54:42 17.1 C 12.08 g/m*3 17.1 C 0 km/h
16 09-06-2010 03:06:43 17.1 C 12.08 g/m*3 17.1 C 0 km/h
17 09-06-2010 03:18:43 17.1 C 12.08 g/m*3 17.1 C 0 km/h
18 09-06-2010 03:30:43 17 C 12.15 g/m*3 17 C 0 km/h
19 09-06-2010 03:42:43 17.1 C 12.08 g/m*3 17.1 C 0 km/h
20 09-06-2010 03:54:43 17 C 12.01 g/m*3 17 C 0 km/h
21 09-06-2010 04:06:43 17 C 12.15 g/m*3 17 C 0 km/h
22 09-06-2010 04:18:43 17 C 12.01 g/m*3 17 C 0 km/h
23 09-06-2010 04:30:43 16.9 C 12.08 g/m*3 16.9 C 0 km/h
24 09-06-2010 04:42:43 17 C 12.01 g/m*3 17 C 0 km/h
25 09-06-2010 04:54:43 16.9 C 12.08 g/m*3 16.9 C 0 km/h
Sensor: Nr:Datum:Temp:Abs-Feuchte:Windchill:Wind:
Aussen-T/F 26 09-06-2010 05:06:43 16.9 C 12.08 g/m*3 16.9 C 0 km/h
27 09-06-2010 05:18:43 16.8 C 12.01 g/m*3 16.8 C 0 km/h
28 09-06-2010 05:30:43 16.8 C 12.01 g/m*3 16.8 C 0 km/h
29 09-06-2010 05:42:43 16.8 C 12.01 g/m*3 16.8 C 0 km/h
30 09-06-2010 05:54:43 16.9 C 11.94 g/m*3 16.9 C 0 km/h
31 09-06-2010 06:06:43 16.9 C 11.94 g/m*3 16.9 C 0 km/h
32 09-06-2010 06:18:43 16.9 C 11.94 g/m*3 16.9 C 0 km/h
33 09-06-2010 06:30:43 17 C 11.87 g/m*3 17 C 0 km/h
34 09-06-2010 06:42:43 17.2 C 12.01 g/m*3 17.2 C 0 km/h
35 09-06-2010 06:54:01 17.3 C 12.08 g/m*3 17.3 C 0 km/h
36 09-06-2010 07:06:02 17.8 C 12.45 g/m*3 17.8 C 0 km/h
37 09-06-2010 07:18:01 17.9 C 12.21 g/m*3 17.9 C 0 km/h
38 09-06-2010 07:30:01 18.1 C 12.05 g/m*3 18.1 C 0 km/h
39 09-06-2010 07:42:02 18.4 C 12.11 g/m*3 18.4 C 0 km/h
40 09-06-2010 07:54:02 18.8 C 12.4 g/m*3 18.8 C 0 km/h
41 09-06-2010 08:06:02 19 C 12.06 g/m*3 19 C 0 km/h
42 09-06-2010 08:18:02 19.6 C 12.49 g/m*3 19.6 C 0 km/h
43 09-06-2010 08:30:02 19.9 C 12.37 g/m*3 19.9 C 0 km/h
44 09-06-2010 08:42:02 20.4 C 12.56 g/m*3 20.4 C 0 km/h
45 09-06-2010 08:54:02 20.8 C 12.13 g/m*3 20.8 C 0 km/h
46 09-06-2010 09:06:03 20.9 C 12.02 g/m*3 20.9 C 0 km/h
47 09-06-2010 09:18:02 21.6 C 11.95 g/m*3 21.6 C 0 km/h
48 09-06-2010 09:30:02 21.7 C 11.83 g/m*3 21.7 C 0 km/h
49 09-06-2010 09:42:01 22.3 C 11.65 g/m*3 22.3 C 0 km/h
50 09-06-2010 09:54:02 22.5 C 11.78 g/m*3 22.5 C 0 km/h
Sensor: Nr:Datum:Temp:Abs-Feuchte:Windchill:Wind:
Aussen-T/F 51 09-06-2010 10:06:01 23.3 C 11.5 g/m*3 23.3 C 0 km/h
52 09-06-2010 10:18:02 23 C 11.72 g/m*3 23 C 0 km/h
53 09-06-2010 10:30:02 23.3 C 11.5 g/m*3 23.3 C 0 km/h
54 09-06-2010 10:42:02 24.2 C 11.44 g/m*3 24.2 C 0 km/h
55 09-06-2010 10:54:02 24.8 C 10.93 g/m*3 24.8 C 0 km/h
56 09-06-2010 11:06:02 25.5 C 10.65 g/m*3 25.5 C 0 km/h
57 09-06-2010 11:18:02 25.7 C 10.53 g/m*3 25.7 C 0 km/h
58 09-06-2010 11:30:02 24.8 C 10.24 g/m*3 24.8 C 0 km/h
59 09-06-2010 11:42:02 25.5 C 9.94 g/m*3 25.5 C 0 km/h
60 09-06-2010 11:54:02 26.3 C 9.41 g/m*3 26.3 C 0 km/h
61 09-06-2010 12:06:01 26.8 C 9.16 g/m*3 26.8 C 0 km/h
62 09-06-2010 12:18:01 26.1 C 8.57 g/m*3 26.1 C 0 km/h
63 09-06-2010 12:30:01 26.3 C 8.91 g/m*3 26.3 C 0 km/h
64 09-06-2010 12:42:02 26.7 C 9.11 g/m*3 26.7 C 0 km/h
65 09-06-2010 12:54:02 26.1 C 8.81 g/m*3 26.1 C 0 km/h
66 09-06-2010 13:06:02 26.3 C 8.66 g/m*3 26.3 C 0 km/h
67 09-06-2010 13:18:02 26.6 C 9.06 g/m*3 26.6 C 0 km/h
68 09-06-2010 13:30:02 26.3 C 8.91 g/m*3 26.3 C 0 km/h
69 09-06-2010 13:42:02 26.9 C 9.47 g/m*3 26.9 C 0 km/h
70 09-06-2010 13:54:02 27.5 C 8.73 g/m*3 27.5 C 0 km/h
71 09-06-2010 14:06:02 27.9 C 8.92 g/m*3 27.9 C 0 km/h
72 09-06-2010 14:18:02 28.4 C 9.45 g/m*3 28.4 C 0 km/h
73 09-06-2010 14:30:02 29.1 C 9.24 g/m*3 29.1 C 0 km/h
74 09-06-2010 14:42:02 29.1 C 8.95 g/m*3 29.1 C 0 km/h
75 09-06-2010 14:54:02 29.2 C 9 g/m*3 29.2 C 0 km/h
Sensor: Nr:Datum:Temp:Abs-Feuchte:Windchill:Wind:
Aussen-T/F 76 09-06-2010 15:06:02 28.6 C 8.71 g/m*3 28.6 C 0 km/h
77 09-06-2010 15:18:03 29.7 C 8.95 g/m*3 29.7 C 0 km/h
78 09-06-2010 15:30:03 30 C 7.88 g/m*3 30 C 0 km/h
79 09-06-2010 15:42:02 29.7 C 7.76 g/m*3 29.7 C 0 km/h
80 09-06-2010 15:54:02 29.7 C 7.46 g/m*3 29.7 C 0 km/h
81 09-06-2010 16:06:02 29.8 C 7.5 g/m*3 29.8 C 0 km/h
82 09-06-2010 16:18:02 29.3 C 7.59 g/m*3 29.3 C 0 km/h
83 09-06-2010 16:30:02 29 C 7.18 g/m*3 29 C 0 km/h
84 09-06-2010 16:42:02 29.2 C 7.26 g/m*3 29.2 C 0 km/h
85 09-06-2010 16:54:02 29.4 C 8.22 g/m*3 29.4 C 0 km/h
86 09-06-2010 17:06:02 28.7 C 9.04 g/m*3 28.7 C 0 km/h
87 09-06-2010 17:18:03 28.4 C 8.62 g/m*3 28.4 C 0 km/h
88 09-06-2010 17:30:03 27.7 C 9.36 g/m*3 27.7 C 0 km/h
89 09-06-2010 17:42:01 27.3 C 9.16 g/m*3 27.3 C 0 km/h
90 09-06-2010 17:54:02 27.2 C 9.63 g/m*3 27.2 C 0 km/h
91 09-06-2010 18:06:01 27 C 9.26 g/m*3 27 C 0 km/h
92 09-06-2010 18:18:02 27 C 9.01 g/m*3 27 C 0 km/h
93 09-06-2010 18:30:03 26.9 C 9.47 g/m*3 26.9 C 0 km/h
94 09-06-2010 18:42:01 26.3 C 8.91 g/m*3 26.3 C 0 km/h
95 09-06-2010 18:54:02 26.3 C 9.65 g/m*3 26.3 C 0 km/h
96 09-06-2010 19:06:02 26.6 C 9.57 g/m*3 26.6 C 0 km/h
97 09-06-2010 19:18:02 26.5 C 10.01 g/m*3 26.5 C 0 km/h
98 09-06-2010 19:30:02 26.2 C 9.6 g/m*3 26.2 C 0 km/h
99 09-06-2010 19:42:03 25.9 C 9.68 g/m*3 25.9 C 0 km/h
100 09-06-2010 19:54:02 25.6 C 9.76 g/m*3 25.6 C 0 km/h
Sensor: Nr:Datum:Temp:Abs-Feuchte:Windchill:Wind:
Aussen-T/F 101 09-06-2010 20:06:01 25.3 C 9.6 g/m*3 25.3 C 0 km/h
102 09-06-2010 20:18:02 25.3 C 9.83 g/m*3 25.3 C 0 km/h
103 09-06-2010 20:30:02 24.8 C 9.56 g/m*3 24.8 C 0 km/h
104 09-06-2010 20:42:02 24.4 C 9.12 g/m*3 24.4 C 0 km/h
105 09-06-2010 20:54:02 24.1 C 8.97 g/m*3 24.1 C 0 km/h
106 09-06-2010 21:06:03 23.8 C 9.25 g/m*3 23.8 C 0 km/h
107 09-06-2010 21:18:02 23.6 C 8.93 g/m*3 23.6 C 0 km/h
108 09-06-2010 21:30:02 23.3 C 9.2 g/m*3 23.3 C 0 km/h
109 09-06-2010 21:42:02 23.2 C 9.15 g/m*3 23.2 C 0 km/h
110 09-06-2010 21:54:01 23.1 C 9.51 g/m*3 23.1 C 0 km/h
111 09-06-2010 22:06:01 23 C 8.84 g/m*3 23 C 0 km/h
112 09-06-2010 22:19:03 23.1 C 8.48 g/m*3 23.1 C 0 km/h
113 09-06-2010 22:31:03 23.2 C 8.32 g/m*3 23.2 C 0 km/h
114 09-06-2010 22:43:03 23.1 C 8.48 g/m*3 23.1 C 0 km/h
115 09-06-2010 22:55:03 22.4 C 8.94 g/m*3 22.4 C 0 km/h
116 09-06-2010 23:07:03 19.8 C 12.13 g/m*3 19.8 C 0 km/h
117 09-06-2010 23:19:03 19.6 C 12.66 g/m*3 19.6 C 0 km/h
118 09-06-2010 23:31:03 19.4 C 12.51 g/m*3 19.4 C 0 km/h
119 09-06-2010 23:43:03 19 C 12.22 g/m*3 19 C 0 km/h
120 09-06-2010 23:55:03 18.5 C 12.97 g/m*3 18.5 C 0 km/h
121 10-06-2010 00:07:03 18.4 C 13.21 g/m*3 18.4 C 0 km/h
122 10-06-2010 00:19:03 18.1 C 13.29 g/m*3 18.1 C 0 km/h
123 10-06-2010 00:31:03 18 C 13.36 g/m*3 18 C 0 km/h
124 10-06-2010 00:43:03 17.8 C 13.36 g/m*3 17.8 C 0 km/h
125 10-06-2010 00:55:04 17.9 C 13.59 g/m*3 17.9 C 0 km/h
Sensor: Nr:Datum:Temp:Abs-Feuchte:Windchill:Wind:
Aussen-T/F 126 10-06-2010 01:07:04 17.8 C 13.66 g/m*3 17.8 C 0 km/h
127 10-06-2010 01:19:04 17.6 C 13.5 g/m*3 17.6 C 0 km/h
128 10-06-2010 01:31:04 17.7 C 13.73 g/m*3 17.7 C 0 km/h
129 10-06-2010 01:43:04 17.5 C 13.57 g/m*3 17.5 C 0 km/h
130 10-06-2010 01:55:04 17.4 C 13.49 g/m*3 17.4 C 0 km/h
131 10-06-2010 02:07:04 17.5 C 13.72 g/m*3 17.5 C 0 km/h
132 10-06-2010 02:19:04 17.4 C 13.63 g/m*3 17.4 C 0 km/h
133 10-06-2010 02:31:04 17.1 C 13.39 g/m*3 17.1 C 0 km/h
134 10-06-2010 02:43:04 17 C 13.17 g/m*3 17 C 0 km/h
135 10-06-2010 02:55:04 16.9 C 13.23 g/m*3 16.9 C 0 km/h
136 10-06-2010 03:07:04 16.9 C 13.23 g/m*3 16.9 C 0 km/h
137 10-06-2010 03:19:04 16.9 C 13.23 g/m*3 16.9 C 0 km/h
138 10-06-2010 03:31:04 17 C 13.17 g/m*3 17 C 0 km/h
139 10-06-2010 03:43:04 17.1 C 13.25 g/m*3 17.1 C 0 km/h
140 10-06-2010 03:55:04 17 C 13.17 g/m*3 17 C 0 km/h
141 10-06-2010 04:07:04 17 C 13.02 g/m*3 17 C 0 km/h
142 10-06-2010 04:19:04 17.1 C 13.25 g/m*3 17.1 C 0 km/h
143 10-06-2010 04:31:04 17.1 C 13.1 g/m*3 17.1 C 0 km/h
144 10-06-2010 04:43:04 17.1 C 13.1 g/m*3 17.1 C 0 km/h
145 10-06-2010 04:55:04 17 C 13.02 g/m*3 17 C 0 km/h
146 10-06-2010 05:07:05 16.8 C 13.01 g/m*3 16.8 C 0 km/h
147 10-06-2010 05:19:05 16.9 C 13.23 g/m*3 16.9 C 0 km/h
148 10-06-2010 05:31:05 16.8 C 13.15 g/m*3 16.8 C 0 km/h
149 10-06-2010 05:43:05 16.9 C 13.23 g/m*3 16.9 C 0 km/h
150 10-06-2010 05:55:05 17 C 13.17 g/m*3 17 C 0 km/h
Sensor: Nr:Datum:Temp:Abs-Feuchte:Windchill:Wind:
Aussen-T/F 151 10-06-2010 06:07:05 17.1 C 13.39 g/m*3 17.1 C 0 km/h
152 10-06-2010 06:19:05 17.1 C 13.39 g/m*3 17.1 C 0 km/h
153 10-06-2010 06:31:05 17.2 C 13.47 g/m*3 17.2 C 0 km/h
154 10-06-2010 06:43:05 17.4 C 13.63 g/m*3 17.4 C 0 km/h
155 10-06-2010 06:55:05 17.6 C 13.8 g/m*3 17.6 C 0 km/h
156 10-06-2010 07:07:05 17.7 C 13.88 g/m*3 17.7 C 0 km/h
157 10-06-2010 07:19:05 17.8 C 13.81 g/m*3 17.8 C 0 km/h
158 10-06-2010 07:31:05 17.9 C 13.89 g/m*3 17.9 C 0 km/h
159 10-06-2010 07:43:05 18 C 13.82 g/m*3 18 C 0 km/h
160 10-06-2010 07:55:02 18.1 C 13.91 g/m*3 18.1 C 0 km/h
161 10-06-2010 08:07:02 18.7 C 14.41 g/m*3 18.7 C 0 km/h
162 10-06-2010 08:19:03 19 C 14.5 g/m*3 19 C 0 km/h
163 10-06-2010 08:31:02 19 C 14.34 g/m*3 19 C 0 km/h
164 10-06-2010 08:43:02 19 C 14.18 g/m*3 19 C 0 km/h
165 10-06-2010 08:55:02 19.1 C 14.26 g/m*3 19.1 C 0 km/h
166 10-06-2010 09:07:02 19.2 C 14.18 g/m*3 19.2 C 0 km/h
167 10-06-2010 09:19:02 19.4 C 14.18 g/m*3 19.4 C 0 km/h
168 10-06-2010 09:31:02 19.5 C 14.27 g/m*3 19.5 C 0 km/h
169 10-06-2010 09:43:02 19.2 C 14.02 g/m*3 19.2 C 0 km/h
170 10-06-2010 09:55:02 20 C 14.69 g/m*3 20 C 0 km/h
171 10-06-2010 10:07:02 20.7 C 14.76 g/m*3 20.7 C 0 km/h
172 10-06-2010 10:19:02 21.2 C 14.08 g/m*3 21.2 C 0 km/h
173 10-06-2010 10:31:01 21.9 C 13.89 g/m*3 21.9 C 0 km/h
174 10-06-2010 10:43:01 21.5 C 12.82 g/m*3 21.5 C 0 km/h
175 10-06-2010 10:55:02 21.4 C 12.94 g/m*3 21.4 C 0 km/h
Sensor: Nr:Datum:Temp:Abs-Feuchte:Windchill:Wind:
Aussen-T/F 176 10-06-2010 11:07:01 21.6 C 13.09 g/m*3 21.6 C 0 km/h
177 10-06-2010 11:19:02 21.9 C 12.93 g/m*3 21.9 C 0 km/h
178 10-06-2010 11:31:02 22.1 C 13.08 g/m*3 22.1 C 0 km/h
179 10-06-2010 11:43:02 22.3 C 12.24 g/m*3 22.3 C 0 km/h
180 10-06-2010 11:55:02 22.7 C 12.73 g/m*3 22.7 C 0 km/h
181 10-06-2010 12:07:03 23.1 C 12.4 g/m*3 23.1 C 0 km/h
182 10-06-2010 12:19:02 24.6 C 12.15 g/m*3 24.6 C 0 km/h
183 10-06-2010 12:31:02 24.9 C 10.99 g/m*3 24.9 C 0 km/h
184 10-06-2010 12:43:02 26.1 C 10.53 g/m*3 26.1 C 0 km/h
185 10-06-2010 12:55:01 26.1 C 10.28 g/m*3 26.1 C 0 km/h
186 10-06-2010 13:07:02 25.7 C 11.01 g/m*3 25.7 C 0 km/h
187 10-06-2010 13:19:01 25.9 C 10.89 g/m*3 25.9 C 0 km/h
188 10-06-2010 13:31:01 26.9 C 10.49 g/m*3 26.9 C 0 km/h
189 10-06-2010 13:43:01 29.3 C 10.51 g/m*3 29.3 C 0 km/h
190 10-06-2010 13:55:01 28.5 C 10.62 g/m*3 28.5 C 0 km/h
191 10-06-2010 14:07:02 28.5 C 11.18 g/m*3 28.5 C 0 km/h
192 10-06-2010 14:19:01 29.1 C 10.97 g/m*3 29.1 C 0 km/h
193 10-06-2010 14:31:02 28.1 C 11.48 g/m*3 28.1 C 0 km/h
194 10-06-2010 14:43:02 27 C 12.87 g/m*3 27 C 0 km/h
195 10-06-2010 14:55:01 26.6 C 13.59 g/m*3 26.6 C 0 km/h
196 10-06-2010 15:07:02 28.3 C 12.16 g/m*3 28.3 C 0 km/h
197 10-06-2010 15:19:02 28.9 C 11.43 g/m*3 28.9 C 0 km/h
198 10-06-2010 15:31:01 28.9 C 11.43 g/m*3 28.9 C 0 km/h
199 10-06-2010 15:43:01 28 C 11.97 g/m*3 28 C 0 km/h
200 10-06-2010 15:55:02 27.4 C 12.1 g/m*3 27.4 C 0 km/h
Sensor: Nr:Datum:Temp:Abs-Feuchte:Windchill:Wind:
Aussen-T/F 201 10-06-2010 16:07:01 26.8 C 13.24 g/m*3 26.8 C 0 km/h
202 10-06-2010 16:19:02 26.1 C 13.22 g/m*3 26.1 C 0 km/h
203 10-06-2010 16:31:01 26.1 C 13.71 g/m*3 26.1 C 0 km/h
204 10-06-2010 16:43:01 27.2 C 13.27 g/m*3 27.2 C 0 km/h
205 10-06-2010 16:55:02 27.8 C 12.64 g/m*3 27.8 C 0 km/h
206 10-06-2010 17:07:02 28.3 C 12.99 g/m*3 28.3 C 0 km/h
207 10-06-2010 17:19:02 27.8 C 13.45 g/m*3 27.8 C 0 km/h
208 10-06-2010 17:31:02 29 C 12.35 g/m*3 29 C 0 km/h
209 10-06-2010 17:43:02 29.1 C 13 g/m*3 29.1 C 0 km/h
210 10-06-2010 17:55:02 30.5 C 11.53 g/m*3 30.5 C 0 km/h
211 10-06-2010 18:07:02 30.4 C 11.47 g/m*3 30.4 C 0 km/h
212 10-06-2010 18:19:02 30.4 C 11.16 g/m*3 30.4 C 0 km/h
213 10-06-2010 18:31:02 31.2 C 10.35 g/m*3 31.2 C 0 km/h
214 10-06-2010 18:43:02 31.3 C 11.06 g/m*3 31.3 C 0 km/h
215 10-06-2010 18:55:02 31.2 C 11 g/m*3 31.2 C 0 km/h
216 10-06-2010 19:07:02 31.7 C 11.3 g/m*3 31.7 C 0 km/h
217 10-06-2010 19:19:02 31.7 C 10.3 g/m*3 31.7 C 0 km/h
218 10-06-2010 19:31:02 31.3 C 11.71 g/m*3 31.3 C 0 km/h
219 10-06-2010 19:43:02 31.1 C 12.23 g/m*3 31.1 C 0 km/h
220 10-06-2010 19:55:01 30.4 C 13.01 g/m*3 30.4 C 0 km/h
221 10-06-2010 20:07:02 29.6 C 13.35 g/m*3 29.6 C 0 km/h
222 10-06-2010 20:19:02 29.1 C 13.57 g/m*3 29.1 C 0 km/h
223 10-06-2010 20:31:01 28.2 C 14.02 g/m*3 28.2 C 0 km/h
224 10-06-2010 20:43:01 27.2 C 14.31 g/m*3 27.2 C 0 km/h
225 10-06-2010 20:55:02 26.3 C 14.11 g/m*3 26.3 C 0 km/h
Sensor: Nr:Datum:Temp:Abs-Feuchte:Windchill:Wind:
Aussen-T/F 226 10-06-2010 21:07:01 25.7 C 14.13 g/m*3 25.7 C 0 km/h
227 10-06-2010 21:19:02 25.2 C 13.04 g/m*3 25.2 C 0 km/h
228 10-06-2010 21:31:01 25 C 12.66 g/m*3 25 C 0 km/h
229 10-06-2010 21:43:01 24.5 C 12.09 g/m*3 24.5 C 0 km/h
230 10-06-2010 21:55:02 24.4 C 12.24 g/m*3 24.4 C 0 km/h
231 10-06-2010 22:07:02 24.5 C 12.09 g/m*3 24.5 C 0 km/h
232 10-06-2010 22:19:01 24.4 C 12.02 g/m*3 24.4 C 0 km/h
233 10-06-2010 22:31:02 24.3 C 12.17 g/m*3 24.3 C 0 km/h
234 10-06-2010 22:43:02 24.1 C 12.25 g/m*3 24.1 C 0 km/h
235 10-06-2010 22:55:27 23.9 C 12.11 g/m*3 23.9 C 0 km/h
236 10-06-2010 23:07:27 23.7 C 12.19 g/m*3 23.7 C 0 km/h
237 10-06-2010 23:19:27 23.4 C 11.14 g/m*3 23.4 C 0 km/h
238 10-06-2010 23:31:27 22.1 C 10.74 g/m*3 22.1 C 0 km/h
239 10-06-2010 23:43:27 21.1 C 11.06 g/m*3 21.1 C 0 km/h
240 10-06-2010 23:55:27 19.7 C 12.06 g/m*3 19.7 C 0 km/h
241 11-06-2010 00:07:27 19.4 C 11.85 g/m*3 19.4 C 0 km/h
242 11-06-2010 00:19:27 20 C 11.41 g/m*3 20 C 0 km/h
243 11-06-2010 00:31:27 18.8 C 12.24 g/m*3 18.8 C 0 km/h
244 11-06-2010 00:43:27 18.3 C 12.66 g/m*3 18.3 C 0 km/h
245 11-06-2010 00:55:27 17.9 C 12.98 g/m*3 17.9 C 0 km/h
246 11-06-2010 01:07:28 17.7 C 13.13 g/m*3 17.7 C 0 km/h
247 11-06-2010 01:19:28 17.8 C 13.36 g/m*3 17.8 C 0 km/h
248 11-06-2010 01:31:28 17.8 C 13.51 g/m*3 17.8 C 0 km/h
249 11-06-2010 01:43:28 17.9 C 13.74 g/m*3 17.9 C 0 km/h
250 11-06-2010 01:55:28 18 C 13.82 g/m*3 18 C 0 km/h
Sensor: Nr:Datum:Temp:Abs-Feuchte:Windchill:Wind:
Aussen-T/F 251 11-06-2010 02:07:28 17.5 C 13.57 g/m*3 17.5 C 0 km/h
252 11-06-2010 02:19:28 17.5 C 13.57 g/m*3 17.5 C 0 km/h
253 11-06-2010 02:31:28 17.6 C 13.8 g/m*3 17.6 C 0 km/h
254 11-06-2010 02:43:28 17.7 C 13.88 g/m*3 17.7 C 0 km/h
255 11-06-2010 02:55:28 17.6 C 13.8 g/m*3 17.6 C 0 km/h
256 11-06-2010 03:07:28 17.4 C 13.63 g/m*3 17.4 C 0 km/h
257 11-06-2010 03:19:28 17.3 C 13.7 g/m*3 17.3 C 0 km/h
258 11-06-2010 03:31:28 17.5 C 13.87 g/m*3 17.5 C 0 km/h
259 11-06-2010 03:43:28 17.5 C 13.87 g/m*3 17.5 C 0 km/h
260 11-06-2010 03:55:28 17.3 C 13.7 g/m*3 17.3 C 0 km/h
261 11-06-2010 04:07:28 17.1 C 13.54 g/m*3 17.1 C 0 km/h
262 11-06-2010 04:19:28 17.1 C 13.54 g/m*3 17.1 C 0 km/h
263 11-06-2010 04:31:28 17.2 C 13.62 g/m*3 17.2 C 0 km/h
264 11-06-2010 04:43:28 17 C 13.46 g/m*3 17 C 0 km/h
265 11-06-2010 04:55:28 17.1 C 13.54 g/m*3 17.1 C 0 km/h
266 11-06-2010 05:07:28 17.1 C 13.54 g/m*3 17.1 C 0 km/h
267 11-06-2010 05:19:28 17 C 13.6 g/m*3 17 C 0 km/h
268 11-06-2010 05:31:29 16.9 C 13.52 g/m*3 16.9 C 0 km/h
269 11-06-2010 05:43:29 17 C 13.6 g/m*3 17 C 0 km/h
270 11-06-2010 05:55:29 17 C 13.6 g/m*3 17 C 0 km/h
271 11-06-2010 06:07:29 17 C 13.6 g/m*3 17 C 0 km/h
272 11-06-2010 06:19:29 17 C 13.6 g/m*3 17 C 0 km/h
273 11-06-2010 06:31:29 17 C 13.6 g/m*3 17 C 0 km/h
274 11-06-2010 06:43:29 17 C 13.6 g/m*3 17 C 0 km/h
275 11-06-2010 06:55:29 16.9 C 13.66 g/m*3 16.9 C 0 km/h
Sensor: Nr:Datum:Temp:Abs-Feuchte:Windchill:Wind:
Aussen-T/F 276 11-06-2010 07:07:29 16.9 C 13.66 g/m*3 16.9 C 0 km/h
277 11-06-2010 07:19:01 16.9 C 13.66 g/m*3 16.9 C 0 km/h
278 11-06-2010 07:31:32 16.9 C 13.66 g/m*3 16.9 C 0 km/h
279 11-06-2010 07:44:01 16.8 C 13.58 g/m*3 16.8 C 0 km/h
280 11-06-2010 07:55:02 16.9 C 13.66 g/m*3 16.9 C 0 km/h
281 11-06-2010 08:08:01 16.6 C 13.28 g/m*3 16.6 C 0 km/h
282 11-06-2010 08:19:01 16.8 C 13.3 g/m*3 16.8 C 0 km/h
283 11-06-2010 08:31:02 16.9 C 13.09 g/m*3 16.9 C 0 km/h
284 11-06-2010 08:43:02 17.3 C 13.11 g/m*3 17.3 C 0 km/h
285 11-06-2010 08:55:01 17.6 C 13.35 g/m*3 17.6 C 0 km/h
286 11-06-2010 09:07:02 18.1 C 13.44 g/m*3 18.1 C 0 km/h
287 11-06-2010 09:20:01 19 C 14.01 g/m*3 19 C 0 km/h
288 11-06-2010 09:31:01 20 C 14.34 g/m*3 20 C 0 km/h
289 11-06-2010 09:43:01 19.8 C 13.84 g/m*3 19.8 C 0 km/h
290 11-06-2010 09:56:01 19.7 C 12.57 g/m*3 19.7 C 0 km/h
291 11-06-2010 10:07:02 20 C 12.27 g/m*3 20 C 0 km/h
292 11-06-2010 10:20:01 20.3 C 11.78 g/m*3 20.3 C 0 km/h
293 11-06-2010 10:32:01 20.7 C 11.52 g/m*3 20.7 C 0 km/h
294 11-06-2010 10:44:01 21.1 C 11.61 g/m*3 21.1 C 0 km/h
295 11-06-2010 10:56:01 21.4 C 11.62 g/m*3 21.4 C 0 km/h
296 11-06-2010 11:07:01 21.8 C 11.13 g/m*3 21.8 C 0 km/h
297 11-06-2010 11:19:02 22.3 C 11.06 g/m*3 22.3 C 0 km/h
298 11-06-2010 11:32:01 22.6 C 10.85 g/m*3 22.6 C 0 km/h
299 11-06-2010 11:44:01 23.2 C 10.6 g/m*3 23.2 C 0 km/h
300 11-06-2010 11:56:01 23.9 C 10.38 g/m*3 23.9 C 0 km/h
Sensor: Nr:Datum:Temp:Abs-Feuchte:Windchill:Wind:
Aussen-T/F 301 11-06-2010 12:08:01 24 C 9.36 g/m*3 24 C 0 km/h
302 11-06-2010 12:19:02 25.4 C 9.18 g/m*3 25.4 C 0 km/h
303 11-06-2010 12:32:01 26.2 C 8.62 g/m*3 26.2 C 0 km/h
304 11-06-2010 12:44:01 25.9 C 8.23 g/m*3 25.9 C 0 km/h
305 11-06-2010 12:55:02 26.7 C 7.85 g/m*3 26.7 C 0 km/h
306 11-06-2010 13:08:01 27.2 C 8.07 g/m*3 27.2 C 0 km/h
307 11-06-2010 13:20:01 27.5 C 7.41 g/m*3 27.5 C 0 km/h
308 11-06-2010 13:31:02 27.8 C 7.8 g/m*3 27.8 C 0 km/h
309 11-06-2010 13:43:02 27.5 C 7.41 g/m*3 27.5 C 0 km/h
310 11-06-2010 13:55:01 27.9 C 7.84 g/m*3 27.9 C 0 km/h
311 11-06-2010 14:08:01 27.3 C 7.85 g/m*3 27.3 C 0 km/h
312 11-06-2010 14:20:01 26.9 C 7.68 g/m*3 26.9 C 0 km/h
313 11-06-2010 14:31:02 26.7 C 7.59 g/m*3 26.7 C 0 km/h
314 11-06-2010 14:43:02 27.1 C 7.25 g/m*3 27.1 C 0 km/h
315 11-06-2010 14:56:01 27.6 C 7.71 g/m*3 27.6 C 0 km/h
316 11-06-2010 15:07:02 28 C 7.34 g/m*3 28 C 0 km/h
317 11-06-2010 15:20:01 28.1 C 7.11 g/m*3 28.1 C 0 km/h
318 11-06-2010 15:32:01 28.7 C 7.63 g/m*3 28.7 C 0 km/h
319 11-06-2010 15:44:02 29.1 C 7.22 g/m*3 29.1 C 0 km/h
320 11-06-2010 15:56:01 29.5 C 7.38 g/m*3 29.5 C 0 km/h
321 11-06-2010 16:07:02 29.8 C 7.2 g/m*3 29.8 C 0 km/h
322 11-06-2010 16:20:01 29.7 C 6.86 g/m*3 29.7 C 0 km/h
323 11-06-2010 16:32:01 29.9 C 6.64 g/m*3 29.9 C 0 km/h
324 11-06-2010 16:44:01 30.1 C 7.01 g/m*3 30.1 C 0 km/h
325 11-06-2010 16:56:01 30.1 C 6.71 g/m*3 30.1 C 0 km/h
Sensor: Nr:Datum:Temp:Abs-Feuchte:Windchill:Wind:
Aussen-T/F 326 11-06-2010 17:07:02 30 C 6.37 g/m*3 30 C 0 km/h
327 11-06-2010 17:20:01 30.6 C 6.26 g/m*3 30.6 C 0 km/h
328 11-06-2010 17:32:01 30.6 C 6.26 g/m*3 30.6 C 0 km/h
329 11-06-2010 17:44:01 30.7 C 6.3 g/m*3 30.7 C 0 km/h
330 11-06-2010 17:56:01 31 C 6.4 g/m*3 31 C 0 km/h
331 11-06-2010 18:08:02 31 C 6.4 g/m*3 31 C 0 km/h
332 11-06-2010 18:20:01 31 C 6.4 g/m*3 31 C 0 km/h
333 11-06-2010 18:32:01 30.6 C 6.26 g/m*3 30.6 C 0 km/h
334 11-06-2010 18:44:01 30.6 C 6.26 g/m*3 30.6 C 0 km/h
335 11-06-2010 18:56:01 30.5 C 6.23 g/m*3 30.5 C 0 km/h
336 11-06-2010 19:08:01 30.6 C 6.26 g/m*3 30.6 C 0 km/h
337 11-06-2010 19:19:02 31 C 6.4 g/m*3 31 C 0 km/h
338 11-06-2010 19:32:01 31 C 6.4 g/m*3 31 C 0 km/h
339 11-06-2010 19:44:01 30.6 C 6.26 g/m*3 30.6 C 0 km/h
340 11-06-2010 19:56:01 30.3 C 7.09 g/m*3 30.3 C 0 km/h
341 11-06-2010 20:08:01 30 C 6.97 g/m*3 30 C 0 km/h
342 11-06-2010 20:20:02 29.5 C 7.08 g/m*3 29.5 C 0 km/h
343 11-06-2010 20:32:01 27.9 C 7.03 g/m*3 27.9 C 0 km/h
344 11-06-2010 20:44:01 27 C 7.46 g/m*3 27 C 0 km/h
345 11-06-2010 20:56:02 26 C 7.55 g/m*3 26 C 0 km/h
346 11-06-2010 21:08:01 25 C 7.83 g/m*3 25 C 0 km/h
347 11-06-2010 21:20:01 24.7 C 8.6 g/m*3 24.7 C 0 km/h
348 11-06-2010 21:32:01 24.3 C 8.85 g/m*3 24.3 C 0 km/h
349 11-06-2010 21:44:01 24.2 C 8.58 g/m*3 24.2 C 0 km/h
350 11-06-2010 21:56:02 24.2 C 8.58 g/m*3 24.2 C 0 km/h
Sensor: Nr:Datum:Temp:Abs-Feuchte:Windchill:Wind:
Aussen-T/F 351 11-06-2010 22:08:02 24 C 8.05 g/m*3 24 C 0 km/h
352 11-06-2010 22:20:01 24 C 8.27 g/m*3 24 C 0 km/h
353 11-06-2010 22:32:01 23.4 C 8.41 g/m*3 23.4 C 0 km/h
354 11-06-2010 22:44:01 23.2 C 7.9 g/m*3 23.2 C 0 km/h
355 11-06-2010 22:56:01 23.1 C 7.65 g/m*3 23.1 C 0 km/h
356 11-06-2010 23:08:02 23 C 7.4 g/m*3 23 C 0 km/h
357 11-06-2010 23:20:01 23 C 7.6 g/m*3 23 C 0 km/h
358 11-06-2010 23:32:01 23 C 7.6 g/m*3 23 C 0 km/h
359 11-06-2010 23:44:01 22.8 C 7.72 g/m*3 22.8 C 0 km/h
360 11-06-2010 23:56:01 22.5 C 7.99 g/m*3 22.5 C 0 km/h
361 12-06-2010 00:08:01 22.2 C 8.05 g/m*3 22.2 C 0 km/h
362 12-06-2010 00:20:01 22.1 C 8.78 g/m*3 22.1 C 0 km/h
363 12-06-2010 00:32:01 21.9 C 9.07 g/m*3 21.9 C 0 km/h
364 12-06-2010 00:44:01 21.8 C 9.02 g/m*3 21.8 C 0 km/h
365 12-06-2010 00:56:01 21.5 C 9.43 g/m*3 21.5 C 0 km/h
366 12-06-2010 01:08:01 21.2 C 9.64 g/m*3 21.2 C 0 km/h
367 12-06-2010 01:20:01 21.2 C 9.82 g/m*3 21.2 C 0 km/h
368 12-06-2010 01:32:01 20.8 C 9.78 g/m*3 20.8 C 0 km/h
369 12-06-2010 01:44:01 20.7 C 9.72 g/m*3 20.7 C 0 km/h
370 12-06-2010 01:56:01 20.8 C 9.96 g/m*3 20.8 C 0 km/h
371 12-06-2010 02:08:01 20.5 C 9.79 g/m*3 20.5 C 0 km/h
372 12-06-2010 02:20:02 20.2 C 9.97 g/m*3 20.2 C 0 km/h
373 12-06-2010 02:32:01 20.3 C 10.2 g/m*3 20.3 C 0 km/h
374 12-06-2010 02:44:01 20.1 C 9.91 g/m*3 20.1 C 0 km/h
375 12-06-2010 02:56:03 20.1 C 10.08 g/m*3 20.1 C 0 km/h
Sensor: Nr:Datum:Temp:Abs-Feuchte:Windchill:Wind:
Aussen-T/F 376 12-06-2010 03:08:03 20 C 9.85 g/m*3 20 C 0 km/h
377 12-06-2010 03:20:03 19.8 C 10.08 g/m*3 19.8 C 0 km/h
378 12-06-2010 03:32:02 19.7 C 10.19 g/m*3 19.7 C 0 km/h
379 12-06-2010 03:44:02 19.6 C 10.3 g/m*3 19.6 C 0 km/h
380 12-06-2010 03:56:02 19.6 C 10.3 g/m*3 19.6 C 0 km/h
381 12-06-2010 04:08:02 19.4 C 10.18 g/m*3 19.4 C 0 km/h
382 12-06-2010 04:20:01 19.4 C 10.34 g/m*3 19.4 C 0 km/h
383 12-06-2010 04:32:02 19.4 C 10.68 g/m*3 19.4 C 0 km/h
384 12-06-2010 04:44:02 19.3 C 10.62 g/m*3 19.3 C 0 km/h
385 12-06-2010 04:56:02 19.1 C 10.98 g/m*3 19.1 C 0 km/h
386 12-06-2010 05:08:02 18.7 C 11.21 g/m*3 18.7 C 0 km/h
387 12-06-2010 05:20:01 18.8 C 11.27 g/m*3 18.8 C 0 km/h
388 12-06-2010 05:32:02 18.7 C 11.21 g/m*3 18.7 C 0 km/h
389 12-06-2010 05:44:02 18.7 C 11.05 g/m*3 18.7 C 0 km/h
390 12-06-2010 05:56:02 18.7 C 10.89 g/m*3 18.7 C 0 km/h
391 12-06-2010 06:08:02 18.6 C 10.66 g/m*3 18.6 C 0 km/h
392 12-06-2010 06:20:02 18.7 C 10.89 g/m*3 18.7 C 0 km/h
393 12-06-2010 06:32:02 18.9 C 11.02 g/m*3 18.9 C 0 km/h
394 12-06-2010 06:44:02 18.4 C 11.32 g/m*3 18.4 C 0 km/h
395 12-06-2010 06:56:02 18.3 C 11.88 g/m*3 18.3 C 0 km/h
396 12-06-2010 07:08:02 18.3 C 12.2 g/m*3 18.3 C 0 km/h
397 12-06-2010 07:20:02 18.2 C 11.97 g/m*3 18.2 C 0 km/h
398 12-06-2010 07:32:01 18.5 C 12.18 g/m*3 18.5 C 0 km/h
399 12-06-2010 07:44:01 18.3 C 12.04 g/m*3 18.3 C 0 km/h
400 12-06-2010 07:56:02 18.6 C 12.41 g/m*3 18.6 C 0 km/h
Sensor: Nr:Datum:Temp:Abs-Feuchte:Windchill:Wind:
Aussen-T/F 401 12-06-2010 08:08:01 18.6 C 12.41 g/m*3 18.6 C 0 km/h
402 12-06-2010 08:20:02 18.5 C 12.18 g/m*3 18.5 C 0 km/h
403 12-06-2010 08:32:01 18.9 C 12.64 g/m*3 18.9 C 0 km/h
404 12-06-2010 08:44:01 18.6 C 12.41 g/m*3 18.6 C 0 km/h
405 12-06-2010 08:56:02 19.3 C 12.44 g/m*3 19.3 C 0 km/h
406 12-06-2010 09:08:02 19.1 C 12.13 g/m*3 19.1 C 0 km/h
407 12-06-2010 09:20:02 19.1 C 11.97 g/m*3 19.1 C 0 km/h
408 12-06-2010 09:32:02 19 C 11.57 g/m*3 19 C 0 km/h
409 12-06-2010 09:44:02 19.6 C 11.31 g/m*3 19.6 C 0 km/h
410 12-06-2010 09:56:02 19.6 C 10.97 g/m*3 19.6 C 0 km/h
411 12-06-2010 10:08:01 20 C 10.89 g/m*3 20 C 0 km/h
412 12-06-2010 10:20:02 19.6 C 10.3 g/m*3 19.6 C 0 km/h
413 12-06-2010 10:32:02 20.3 C 10.55 g/m*3 20.3 C 0 km/h
414 12-06-2010 10:44:02 20.5 C 10.14 g/m*3 20.5 C 0 km/h
415 12-06-2010 10:56:02 21.3 C 10.25 g/m*3 21.3 C 0 km/h
416 12-06-2010 11:08:02 21.2 C 10.19 g/m*3 21.2 C 0 km/h
417 12-06-2010 11:20:02 22.1 C 9.96 g/m*3 22.1 C 0 km/h
418 12-06-2010 11:32:02 22.8 C 9.35 g/m*3 22.8 C 0 km/h
419 12-06-2010 11:44:03 23.2 C 9.36 g/m*3 23.2 C 0 km/h
420 12-06-2010 11:56:02 22.9 C 8.99 g/m*3 22.9 C 0 km/h
421 12-06-2010 12:08:01 23 C 8.43 g/m*3 23 C 0 km/h
422 12-06-2010 12:20:01 23.6 C 8.51 g/m*3 23.6 C 0 km/h
423 12-06-2010 12:32:02 23.6 C 8.72 g/m*3 23.6 C 0 km/h
424 12-06-2010 12:44:02 22.9 C 8.99 g/m*3 22.9 C 0 km/h
425 12-06-2010 12:56:02 23.4 C 8.83 g/m*3 23.4 C 0 km/h
Sensor: Nr:Datum:Temp:Abs-Feuchte:Windchill:Wind:
Aussen-T/F 426 12-06-2010 13:08:01 25.2 C 8.38 g/m*3 25.2 C 0 km/h
427 12-06-2010 13:20:02 23.8 C 8.82 g/m*3 23.8 C 0 km/h
428 12-06-2010 13:32:02 24.4 C 8.23 g/m*3 24.4 C 0 km/h
429 12-06-2010 13:44:02 23.2 C 8.52 g/m*3 23.2 C 0 km/h
430 12-06-2010 13:56:02 24.2 C 8.36 g/m*3 24.2 C 0 km/h
431 12-06-2010 14:08:01 24.6 C 8.33 g/m*3 24.6 C 0 km/h
432 12-06-2010 14:20:01 24 C 8.27 g/m*3 24 C 0 km/h
433 12-06-2010 14:32:02 23.9 C 8.65 g/m*3 23.9 C 0 km/h
434 12-06-2010 14:44:02 24 C 8.49 g/m*3 24 C 0 km/h
435 12-06-2010 14:56:02 25.9 C 8.47 g/m*3 25.9 C 0 km/h
436 12-06-2010 15:08:02 25.2 C 8.15 g/m*3 25.2 C 0 km/h
437 12-06-2010 15:20:02 24.8 C 8.19 g/m*3 24.8 C 0 km/h
438 12-06-2010 15:32:02 23.9 C 8.87 g/m*3 23.9 C 0 km/h
439 12-06-2010 15:44:02 21.8 C 9.98 g/m*3 21.8 C 0 km/h
440 12-06-2010 15:56:02 19.2 C 10.06 g/m*3 19.2 C 0 km/h
441 12-06-2010 16:08:03 18.9 C 10.37 g/m*3 18.9 C 0 km/h
442 12-06-2010 16:20:02 17.9 C 9.92 g/m*3 17.9 C 0 km/h
443 12-06-2010 16:32:02 17.4 C 10.37 g/m*3 17.4 C 0 km/h
444 12-06-2010 16:44:02 15.9 C 10.16 g/m*3 15.9 C 0 km/h
445 12-06-2010 16:56:01 15.1 C 10.19 g/m*3 15.1 C 0 km/h
446 12-06-2010 17:08:02 15.2 C 10.51 g/m*3 15.2 C 0 km/h
447 12-06-2010 17:20:01 14.2 C 9.65 g/m*3 14.2 C 0 km/h
448 12-06-2010 17:32:01 13.7 C 9.47 g/m*3 13.7 C 0 km/h
449 12-06-2010 17:44:01 13.6 C 9.53 g/m*3 13.6 C 0 km/h
450 12-06-2010 17:56:01 14.4 C 10.14 g/m*3 14.4 C 0 km/h
Sensor: Nr:Datum:Temp:Abs-Feuchte:Windchill:Wind:
Aussen-T/F 451 12-06-2010 18:08:02 14.7 C 10.32 g/m*3 14.7 C 0 km/h
452 12-06-2010 18:20:02 14.6 C 10.01 g/m*3 14.6 C 0 km/h
453 12-06-2010 18:32:01 14.8 C 10.26 g/m*3 14.8 C 0 km/h
454 12-06-2010 18:44:01 14.4 C 9.89 g/m*3 14.4 C 0 km/h
455 12-06-2010 18:56:01 14.6 C 10.14 g/m*3 14.6 C 0 km/h
456 12-06-2010 19:08:01 14.6 C 9.89 g/m*3 14.6 C 0 km/h
457 12-06-2010 19:20:02 14.4 C 9.64 g/m*3 14.4 C 0 km/h
458 12-06-2010 19:32:01 14.7 C 9.69 g/m*3 14.7 C 0 km/h
459 12-06-2010 19:44:01 15 C 9.75 g/m*3 15 C 0 km/h
460 12-06-2010 19:56:02 15.4 C 9.99 g/m*3 15.4 C 0 km/h
461 12-06-2010 20:08:01 15.3 C 9.66 g/m*3 15.3 C 0 km/h
462 12-06-2010 20:20:02 15.3 C 9.53 g/m*3 15.3 C 0 km/h
463 12-06-2010 20:32:01 15.3 C 9.53 g/m*3 15.3 C 0 km/h
464 12-06-2010 20:44:01 15.4 C 9.46 g/m*3 15.4 C 0 km/h
465 12-06-2010 20:56:02 15.4 C 9.46 g/m*3 15.4 C 0 km/h
466 12-06-2010 21:08:02 15.2 C 9.35 g/m*3 15.2 C 0 km/h
467 12-06-2010 21:20:02 15.1 C 9.29 g/m*3 15.1 C 0 km/h
468 12-06-2010 21:32:02 15 C 9.36 g/m*3 15 C 0 km/h
469 12-06-2010 21:44:02 14.9 C 9.56 g/m*3 14.9 C 0 km/h
470 12-06-2010 21:56:02 14.7 C 9.44 g/m*3 14.7 C 0 km/h
471 12-06-2010 22:08:01 14.7 C 9.44 g/m*3 14.7 C 0 km/h
472 12-06-2010 22:20:02 14.7 C 9.57 g/m*3 14.7 C 0 km/h
473 12-06-2010 22:32:01 14.6 C 9.51 g/m*3 14.6 C 0 km/h
474 12-06-2010 22:44:01 14.4 C 9.39 g/m*3 14.4 C 0 km/h
475 12-06-2010 22:56:02 14.1 C 9.22 g/m*3 14.1 C 0 km/h
Sensor: Nr:Datum:Temp:Abs-Feuchte:Windchill:Wind:
Aussen-T/F 476 12-06-2010 23:09:03 13.6 C 9.06 g/m*3 13.6 C 0 km/h
477 12-06-2010 23:21:03 13.4 C 9.07 g/m*3 13.4 C 0 km/h
478 12-06-2010 23:33:03 13.2 C 8.96 g/m*3 13.2 C 0 km/h
479 12-06-2010 23:45:03 13.2 C 8.96 g/m*3 13.2 C 0 km/h
480 12-06-2010 23:57:03 13 C 8.85 g/m*3 13 C 0 km/h
481 13-06-2010 00:09:03 12.8 C 8.85 g/m*3 12.8 C 0 km/h
482 13-06-2010 00:21:03 12.6 C 8.85 g/m*3 12.6 C 0 km/h
483 13-06-2010 00:33:03 12.6 C 8.85 g/m*3 12.6 C 0 km/h
484 13-06-2010 00:45:03 12.6 C 8.96 g/m*3 12.6 C 0 km/h
485 13-06-2010 00:57:03 12.8 C 9.07 g/m*3 12.8 C 0 km/h
486 13-06-2010 01:09:03 13.1 C 9.24 g/m*3 13.1 C 0 km/h
487 13-06-2010 01:21:03 13.3 C 9.47 g/m*3 13.3 C 0 km/h
488 13-06-2010 01:33:03 13.4 C 9.53 g/m*3 13.4 C 0 km/h
489 13-06-2010 01:45:04 13.4 C 9.42 g/m*3 13.4 C 0 km/h
490 13-06-2010 01:57:04 13.3 C 9.36 g/m*3 13.3 C 0 km/h
491 13-06-2010 02:09:04 13.5 C 9.59 g/m*3 13.5 C 0 km/h
492 13-06-2010 02:21:04 13.3 C 9.47 g/m*3 13.3 C 0 km/h
493 13-06-2010 02:33:04 13.2 C 9.42 g/m*3 13.2 C 0 km/h
494 13-06-2010 02:45:04 13 C 9.41 g/m*3 13 C 0 km/h
495 13-06-2010 02:57:04 12.7 C 9.46 g/m*3 12.7 C 0 km/h
496 13-06-2010 03:09:04 12.5 C 9.46 g/m*3 12.5 C 0 km/h
497 13-06-2010 03:21:04 12.4 C 9.4 g/m*3 12.4 C 0 km/h
498 13-06-2010 03:33:04 12.2 C 9.28 g/m*3 12.2 C 0 km/h
499 13-06-2010 03:45:04 11.9 C 9.21 g/m*3 11.9 C 0 km/h
500 13-06-2010 03:57:04 11.8 C 9.16 g/m*3 11.8 C 0 km/h
Sensor: Nr:Datum:Temp:Abs-Feuchte:Windchill:Wind:
Aussen-T/F 501 13-06-2010 04:09:04 11.5 C 8.99 g/m*3 11.5 C 0 km/h
502 13-06-2010 04:21:04 11.4 C 8.83 g/m*3 11.4 C 0 km/h
503 13-06-2010 04:33:04 11.4 C 8.72 g/m*3 11.4 C 0 km/h
504 13-06-2010 04:45:04 11.2 C 8.51 g/m*3 11.2 C 0 km/h
505 13-06-2010 04:57:04 11.1 C 8.46 g/m*3 11.1 C 0 km/h
506 13-06-2010 05:09:04 11 C 8.51 g/m*3 11 C 0 km/h
507 13-06-2010 05:21:04 11 C 8.41 g/m*3 11 C 0 km/h
508 13-06-2010 05:33:04 10.8 C 8.3 g/m*3 10.8 C 0 km/h
509 13-06-2010 05:45:04 10.7 C 8.25 g/m*3 10.7 C 0 km/h
510 13-06-2010 05:57:04 10.6 C 8.2 g/m*3 10.6 C 0 km/h
511 13-06-2010 06:09:05 10.5 C 8.15 g/m*3 10.5 C 0 km/h
512 13-06-2010 06:21:05 10.5 C 8.24 g/m*3 10.5 C 0 km/h
513 13-06-2010 06:33:05 10.5 C 8.24 g/m*3 10.5 C 0 km/h
514 13-06-2010 06:45:05 10.5 C 8.24 g/m*3 10.5 C 0 km/h
515 13-06-2010 06:57:05 10.5 C 8.24 g/m*3 10.5 C 0 km/h
516 13-06-2010 07:09:05 10.7 C 8.45 g/m*3 10.7 C 0 km/h
517 13-06-2010 07:21:05 11 C 8.61 g/m*3 11 C 0 km/h
518 13-06-2010 07:33:05 11.4 C 8.72 g/m*3 11.4 C 0 km/h
519 13-06-2010 07:45:02 11.7 C 8.79 g/m*3 11.7 C 0 km/h
520 13-06-2010 07:57:02 12.1 C 8.69 g/m*3 12.1 C 0 km/h
521 13-06-2010 08:09:02 12.6 C 8.63 g/m*3 12.6 C 0 km/h
522 13-06-2010 08:21:02 12.8 C 8.29 g/m*3 12.8 C 0 km/h
523 13-06-2010 08:33:02 13.2 C 7.92 g/m*3 13.2 C 0 km/h
524 13-06-2010 08:45:02 13.5 C 7.95 g/m*3 13.5 C 0 km/h
525 13-06-2010 08:57:02 13.7 C 8.05 g/m*3 13.7 C 0 km/h
Sensor: Nr:Datum:Temp:Abs-Feuchte:Windchill:Wind:
Aussen-T/F 526 13-06-2010 09:09:01 14.1 C 8.01 g/m*3 14.1 C 0 km/h
527 13-06-2010 09:21:02 15 C 7.95 g/m*3 15 C 0 km/h
528 13-06-2010 09:33:02 15.7 C 7.76 g/m*3 15.7 C 0 km/h
529 13-06-2010 09:45:02 16.7 C 7.39 g/m*3 16.7 C 0 km/h
530 13-06-2010 09:57:02 17.7 C 6.79 g/m*3 17.7 C 0 km/h
531 13-06-2010 10:09:02 18.9 C 6.48 g/m*3 18.9 C 0 km/h
532 13-06-2010 10:21:02 19.5 C 6.38 g/m*3 19.5 C 0 km/h
533 13-06-2010 10:33:02 16.8 C 6.43 g/m*3 16.8 C 0 km/h
534 13-06-2010 10:45:02 16.2 C 5.79 g/m*3 16.2 C 0 km/h
535 13-06-2010 10:57:02 17.4 C 6.37 g/m*3 17.4 C 0 km/h
536 13-06-2010 11:09:02 18.5 C 5.85 g/m*3 18.5 C 0 km/h
537 13-06-2010 11:21:02 19 C 5.87 g/m*3 19 C 0 km/h
538 13-06-2010 11:33:02 19.5 C 6.04 g/m*3 19.5 C 0 km/h
539 13-06-2010 11:45:02 19.8 C 5.64 g/m*3 19.8 C 0 km/h
540 13-06-2010 11:57:02 20.9 C 6.19 g/m*3 20.9 C 0 km/h
541 13-06-2010 12:09:02 21.3 C 5.59 g/m*3 21.3 C 0 km/h
542 13-06-2010 12:21:02 22.4 C 5.36 g/m*3 22.4 C 0 km/h
543 13-06-2010 12:33:02 23.8 C 5.38 g/m*3 23.8 C 0 km/h
544 13-06-2010 12:45:02 23.1 C 5.17 g/m*3 23.1 C 0 km/h
545 13-06-2010 12:57:02 23.6 C 4.89 g/m*3 23.6 C 0 km/h
546 13-06-2010 13:09:02 23.4 C 5.47 g/m*3 23.4 C 0 km/h
547 13-06-2010 13:21:02 24.9 C 4.81 g/m*3 24.9 C 0 km/h
548 13-06-2010 13:33:02 25.4 C 4.71 g/m*3 25.4 C 0 km/h
549 13-06-2010 13:45:02 25.1 C 4.63 g/m*3 25.1 C 0 km/h
550 13-06-2010 13:57:02 25.2 C 4.66 g/m*3 25.2 C 0 km/h
Sensor: Nr:Datum:Temp:Abs-Feuchte:Windchill:Wind:
Aussen-T/F 551 13-06-2010 14:09:02 24.8 C 4.78 g/m*3 24.8 C 0 km/h
552 13-06-2010 14:21:02 24.8 C 5.01 g/m*3 24.8 C 0 km/h
553 13-06-2010 14:33:01 23.9 C 4.98 g/m*3 23.9 C 0 km/h
554 13-06-2010 14:45:02 22.6 C 4.62 g/m*3 22.6 C 0 km/h
555 13-06-2010 14:57:02 24.5 C 5.15 g/m*3 24.5 C 0 km/h
556 13-06-2010 15:09:01 25.1 C 5.32 g/m*3 25.1 C 0 km/h
557 13-06-2010 15:21:02 25.8 C 5.06 g/m*3 25.8 C 0 km/h
558 13-06-2010 15:33:01 24.1 C 4.38 g/m*3 24.1 C 0 km/h
559 13-06-2010 15:45:02 24.3 C 4.43 g/m*3 24.3 C 0 km/h
560 13-06-2010 15:57:02 23.8 C 4.3 g/m*3 23.8 C 0 km/h
561 13-06-2010 16:09:02 24.3 C 4.43 g/m*3 24.3 C 0 km/h
562 13-06-2010 16:21:02 24.6 C 4.5 g/m*3 24.6 C 0 km/h
563 13-06-2010 16:33:02 24.2 C 4.4 g/m*3 24.2 C 0 km/h
564 13-06-2010 16:45:02 26 C 4.87 g/m*3 26 C 0 km/h
565 13-06-2010 16:57:02 26 C 4.87 g/m*3 26 C 0 km/h
566 13-06-2010 17:09:01 26.1 C 4.9 g/m*3 26.1 C 0 km/h
567 13-06-2010 17:21:02 26.3 C 4.95 g/m*3 26.3 C 0 km/h
568 13-06-2010 17:33:02 26 C 4.87 g/m*3 26 C 0 km/h
569 13-06-2010 17:45:02 26.5 C 5.01 g/m*3 26.5 C 0 km/h
570 13-06-2010 17:57:02 25.4 C 4.71 g/m*3 25.4 C 0 km/h
571 13-06-2010 18:09:02 26.5 C 5.01 g/m*3 26.5 C 0 km/h
572 13-06-2010 18:21:02 27.1 C 5.18 g/m*3 27.1 C 0 km/h
573 13-06-2010 18:33:02 25.8 C 4.82 g/m*3 25.8 C 0 km/h
574 13-06-2010 18:45:01 26.5 C 5.01 g/m*3 26.5 C 0 km/h
575 13-06-2010 18:57:01 26.3 C 4.95 g/m*3 26.3 C 0 km/h
Sensor: Nr:Datum:Temp:Abs-Feuchte:Windchill:Wind:
Aussen-T/F 576 13-06-2010 19:09:02 26.3 C 4.95 g/m*3 26.3 C 0 km/h
577 13-06-2010 19:21:01 25.9 C 4.84 g/m*3 25.9 C 0 km/h
578 13-06-2010 19:33:01 25.4 C 4.71 g/m*3 25.4 C 0 km/h
579 13-06-2010 19:45:01 24.1 C 4.38 g/m*3 24.1 C 0 km/h
580 13-06-2010 19:57:01 23.6 C 5.32 g/m*3 23.6 C 0 km/h
581 13-06-2010 20:09:02 24.1 C 4.81 g/m*3 24.1 C 0 km/h
582 13-06-2010 20:21:01 24.7 C 5.21 g/m*3 24.7 C 0 km/h
583 13-06-2010 20:33:01 24.5 C 4.92 g/m*3 24.5 C 0 km/h
584 13-06-2010 20:45:01 23.4 C 5.05 g/m*3 23.4 C 0 km/h
585 13-06-2010 20:57:01 22.8 C 6.1 g/m*3 22.8 C 0 km/h
586 13-06-2010 21:09:02 21.8 C 6.33 g/m*3 21.8 C 0 km/h
587 13-06-2010 21:21:01 20.6 C 6.44 g/m*3 20.6 C 0 km/h
588 13-06-2010 21:33:01 19.3 C 6.3 g/m*3 19.3 C 0 km/h
589 13-06-2010 21:45:02 18.6 C 6.37 g/m*3 18.6 C 0 km/h
590 13-06-2010 21:57:02 17.9 C 6.26 g/m*3 17.9 C 0 km/h
591 13-06-2010 22:09:02 18.1 C 6.33 g/m*3 18.1 C 0 km/h
592 13-06-2010 22:21:02 18.1 C 6.18 g/m*3 18.1 C 0 km/h
593 13-06-2010 22:34:02 17.7 C 6.49 g/m*3 17.7 C 0 km/h
594 13-06-2010 22:46:02 17.3 C 6.63 g/m*3 17.3 C 0 km/h
595 13-06-2010 22:58:02 17 C 6.66 g/m*3 17 C 0 km/h
596 13-06-2010 23:10:02 16.7 C 6.68 g/m*3 16.7 C 0 km/h
597 13-06-2010 23:22:02 16.6 C 6.92 g/m*3 16.6 C 0 km/h
598 13-06-2010 23:34:02 16.2 C 6.9 g/m*3 16.2 C 0 km/h
599 13-06-2010 23:46:02 16 C 7.08 g/m*3 16 C 0 km/h
600 13-06-2010 23:58:02 15.9 C 7.04 g/m*3 15.9 C 0 km/h
Sensor: Nr:Datum:Temp:Abs-Feuchte:Windchill:Wind:
Aussen-T/F 601 14-06-2010 00:10:02 15.7 C 7.36 g/m*3 15.7 C 0 km/h
602 14-06-2010 00:22:02 15.4 C 7.49 g/m*3 15.4 C 0 km/h
603 14-06-2010 00:34:02 15.4 C 7.49 g/m*3 15.4 C 0 km/h
604 14-06-2010 00:46:02 15.4 C 7.62 g/m*3 15.4 C 0 km/h
605 14-06-2010 00:58:02 15.3 C 7.44 g/m*3 15.3 C 0 km/h
606 14-06-2010 01:10:02 14.9 C 7.52 g/m*3 14.9 C 0 km/h
607 14-06-2010 01:22:02 14.8 C 7.35 g/m*3 14.8 C 0 km/h
608 14-06-2010 01:34:02 14.5 C 7.34 g/m*3 14.5 C 0 km/h
609 14-06-2010 01:46:02 14.3 C 7.25 g/m*3 14.3 C 0 km/h
610 14-06-2010 01:58:02 14.1 C 7.4 g/m*3 14.1 C 0 km/h
611 14-06-2010 02:10:02 13.9 C 7.67 g/m*3 13.9 C 0 km/h
612 14-06-2010 02:22:03 13.4 C 7.44 g/m*3 13.4 C 0 km/h
613 14-06-2010 02:34:03 13.5 C 7.72 g/m*3 13.5 C 0 km/h
614 14-06-2010 02:46:03 13.3 C 7.74 g/m*3 13.3 C 0 km/h
615 14-06-2010 02:58:03 13.2 C 7.81 g/m*3 13.2 C 0 km/h
616 14-06-2010 03:10:03 13 C 7.83 g/m*3 13 C 0 km/h
617 14-06-2010 03:22:03 12.9 C 7.89 g/m*3 12.9 C 0 km/h
618 14-06-2010 03:34:03 12.7 C 7.9 g/m*3 12.7 C 0 km/h
619 14-06-2010 03:46:03 12.5 C 7.81 g/m*3 12.5 C 0 km/h
620 14-06-2010 03:58:03 12.2 C 7.88 g/m*3 12.2 C 0 km/h
621 14-06-2010 04:10:03 12.2 C 7.88 g/m*3 12.2 C 0 km/h
622 14-06-2010 04:22:03 12.1 C 7.94 g/m*3 12.1 C 0 km/h
623 14-06-2010 04:34:03 11.9 C 7.84 g/m*3 11.9 C 0 km/h
624 14-06-2010 04:46:03 11.9 C 7.84 g/m*3 11.9 C 0 km/h
625 14-06-2010 04:58:03 11.8 C 7.79 g/m*3 11.8 C 0 km/h
Sensor: Nr:Datum:Temp:Abs-Feuchte:Windchill:Wind:
Aussen-T/F 626 14-06-2010 05:10:03 11.8 C 7.79 g/m*3 11.8 C 0 km/h
627 14-06-2010 05:22:03 11.6 C 7.69 g/m*3 11.6 C 0 km/h
628 14-06-2010 05:34:03 11.4 C 7.6 g/m*3 11.4 C 0 km/h
629 14-06-2010 05:46:03 11.3 C 7.55 g/m*3 11.3 C 0 km/h
630 14-06-2010 05:58:03 11.3 C 7.65 g/m*3 11.3 C 0 km/h
631 14-06-2010 06:10:03 11.3 C 7.75 g/m*3 11.3 C 0 km/h
632 14-06-2010 06:22:03 11.2 C 7.7 g/m*3 11.2 C 0 km/h
633 14-06-2010 06:34:03 11.3 C 7.85 g/m*3 11.3 C 0 km/h
634 14-06-2010 06:46:03 11.4 C 7.9 g/m*3 11.4 C 0 km/h
635 14-06-2010 06:58:04 11.2 C 7.91 g/m*3 11.2 C 0 km/h
636 14-06-2010 07:10:01 11.2 C 8.01 g/m*3 11.2 C 0 km/h
637 14-06-2010 07:22:02 11.5 C 8.26 g/m*3 11.5 C 0 km/h
638 14-06-2010 07:34:01 11.7 C 8.26 g/m*3 11.7 C 0 km/h
639 14-06-2010 07:46:01 11.9 C 8.26 g/m*3 11.9 C 0 km/h
640 14-06-2010 07:58:01 12.2 C 8.31 g/m*3 12.2 C 0 km/h
641 14-06-2010 08:10:02 12.5 C 8.36 g/m*3 12.5 C 0 km/h
642 14-06-2010 08:22:02 12.9 C 8.34 g/m*3 12.9 C 0 km/h
643 14-06-2010 08:34:01 13.2 C 8.38 g/m*3 13.2 C 0 km/h
644 14-06-2010 08:46:02 13.8 C 8.46 g/m*3 13.8 C 0 km/h
645 14-06-2010 08:58:02 14.5 C 8.58 g/m*3 14.5 C 0 km/h
646 14-06-2010 09:10:01 15 C 8.33 g/m*3 15 C 0 km/h
647 14-06-2010 09:22:02 15.9 C 8.4 g/m*3 15.9 C 0 km/h
648 14-06-2010 09:34:01 17 C 7.96 g/m*3 17 C 0 km/h
649 14-06-2010 09:46:03 17.8 C 7.74 g/m*3 17.8 C 0 km/h
650 14-06-2010 09:58:03 18.4 C 7.55 g/m*3 18.4 C 0 km/h
Sensor: Nr:Datum:Temp:Abs-Feuchte:Windchill:Wind:
Aussen-T/F 651 14-06-2010 10:10:02 18.8 C 7.57 g/m*3 18.8 C 0 km/h
652 14-06-2010 10:22:02 19.5 C 7.55 g/m*3 19.5 C 0 km/h
653 14-06-2010 10:34:02 20.3 C 7.39 g/m*3 20.3 C 0 km/h
654 14-06-2010 10:46:02 20.4 C 7.08 g/m*3 20.4 C 0 km/h
655 14-06-2010 10:58:02 20.8 C 7.06 g/m*3 20.8 C 0 km/h
656 14-06-2010 11:10:01 21.5 C 6.98 g/m*3 21.5 C 0 km/h
657 14-06-2010 11:22:02 22.3 C 7.11 g/m*3 22.3 C 0 km/h
658 14-06-2010 11:34:02 23.1 C 6.61 g/m*3 23.1 C 0 km/h
659 14-06-2010 11:46:02 23.6 C 6.17 g/m*3 23.6 C 0 km/h
660 14-06-2010 11:58:02 24.1 C 5.47 g/m*3 24.1 C 0 km/h
661 14-06-2010 12:10:02 24.5 C 5.82 g/m*3 24.5 C 0 km/h
662 14-06-2010 12:22:02 24.6 C 5.63 g/m*3 24.6 C 0 km/h
663 14-06-2010 12:34:02 23.9 C 5.41 g/m*3 23.9 C 0 km/h
664 14-06-2010 12:46:02 25.7 C 5.51 g/m*3 25.7 C 0 km/h
665 14-06-2010 12:58:02 27.2 C 5.2 g/m*3 27.2 C 0 km/h
666 14-06-2010 13:10:02 26.5 C 5.01 g/m*3 26.5 C 0 km/h
667 14-06-2010 13:22:01 23.9 C 5.41 g/m*3 23.9 C 0 km/h
668 14-06-2010 13:34:02 27.8 C 5.38 g/m*3 27.8 C 0 km/h
669 14-06-2010 13:46:02 27.1 C 5.18 g/m*3 27.1 C 0 km/h
670 14-06-2010 13:58:02 26.4 C 4.98 g/m*3 26.4 C 0 km/h
671 14-06-2010 14:10:02 27.4 C 5.26 g/m*3 27.4 C 0 km/h
672 14-06-2010 14:22:01 28 C 5.44 g/m*3 28 C 0 km/h
673 14-06-2010 14:34:02 27.8 C 5.38 g/m*3 27.8 C 0 km/h
674 14-06-2010 14:46:02 27 C 5.15 g/m*3 27 C 0 km/h
675 14-06-2010 14:58:02 27 C 5.15 g/m*3 27 C 0 km/h
Sensor: Nr:Datum:Temp:Abs-Feuchte:Windchill:Wind:
Aussen-T/F 676 14-06-2010 15:10:02 26.3 C 5.45 g/m*3 26.3 C 0 km/h
677 14-06-2010 15:22:02 25.6 C 5.24 g/m*3 25.6 C 0 km/h
678 14-06-2010 15:34:02 26.7 C 5.06 g/m*3 26.7 C 0 km/h
679 14-06-2010 15:46:02 28 C 5.44 g/m*3 28 C 0 km/h
680 14-06-2010 15:58:02 27.9 C 5.41 g/m*3 27.9 C 0 km/h
681 14-06-2010 16:10:02 29.1 C 5.78 g/m*3 29.1 C 0 km/h
682 14-06-2010 16:22:02 29.1 C 5.78 g/m*3 29.1 C 0 km/h
683 14-06-2010 16:34:02 29.8 C 6 g/m*3 29.8 C 0 km/h
684 14-06-2010 16:46:01 30.2 C 6.13 g/m*3 30.2 C 0 km/h
685 14-06-2010 16:58:01 30.9 C 6.37 g/m*3 30.9 C 0 km/h
686 14-06-2010 17:10:02 30 C 6.06 g/m*3 30 C 0 km/h
687 14-06-2010 17:22:02 28.7 C 5.65 g/m*3 28.7 C 0 km/h
688 14-06-2010 17:34:02 29.7 C 5.97 g/m*3 29.7 C 0 km/h
689 14-06-2010 17:46:02 29 C 5.74 g/m*3 29 C 0 km/h
690 14-06-2010 17:58:02 28.3 C 5.53 g/m*3 28.3 C 0 km/h
691 14-06-2010 18:10:02 27.7 C 5.35 g/m*3 27.7 C 0 km/h
692 14-06-2010 18:22:02 29.4 C 5.87 g/m*3 29.4 C 0 km/h
693 14-06-2010 18:34:01 29.5 C 5.9 g/m*3 29.5 C 0 km/h
694 14-06-2010 18:46:02 28.6 C 5.62 g/m*3 28.6 C 0 km/h
695 14-06-2010 18:58:02 27.2 C 5.2 g/m*3 27.2 C 0 km/h
696 14-06-2010 19:10:01 25.7 C 5.75 g/m*3 25.7 C 0 km/h
697 14-06-2010 19:22:01 24.7 C 6.11 g/m*3 24.7 C 0 km/h
698 14-06-2010 19:34:01 24.4 C 6.68 g/m*3 24.4 C 0 km/h
699 14-06-2010 19:46:02 25.5 C 6.39 g/m*3 25.5 C 0 km/h
700 14-06-2010 19:58:02 25.7 C 6.46 g/m*3 25.7 C 0 km/h
Sensor: Nr:Datum:Temp:Abs-Feuchte:Windchill:Wind:
Aussen-T/F 701 14-06-2010 20:10:02 25.3 C 6.32 g/m*3 25.3 C 0 km/h
702 14-06-2010 20:22:02 24.2 C 6.6 g/m*3 24.2 C 0 km/h
703 14-06-2010 20:34:02 22.9 C 6.54 g/m*3 22.9 C 0 km/h
704 14-06-2010 20:46:01 22.2 C 6.09 g/m*3 22.2 C 0 km/h
705 14-06-2010 20:58:01 21.7 C 6.1 g/m*3 21.7 C 0 km/h
706 14-06-2010 21:10:02 21.1 C 6.08 g/m*3 21.1 C 0 km/h
707 14-06-2010 21:22:01 20.4 C 6.19 g/m*3 20.4 C 0 km/h
708 14-06-2010 21:34:02 20 C 6.22 g/m*3 20 C 0 km/h
709 14-06-2010 21:46:02 19.6 C 6.08 g/m*3 19.6 C 0 km/h
710 14-06-2010 21:58:02 19.2 C 6.1 g/m*3 19.2 C 0 km/h
711 14-06-2010 22:10:02 18.9 C 6.32 g/m*3 18.9 C 0 km/h
712 14-06-2010 22:22:02 18.7 C 6.72 g/m*3 18.7 C 0 km/h
713 14-06-2010 22:34:01 18.6 C 7.64 g/m*3 18.6 C 0 km/h
714 14-06-2010 22:46:02 18.5 C 8.07 g/m*3 18.5 C 0 km/h
715 14-06-2010 22:58:02 18.4 C 8.34 g/m*3 18.4 C 0 km/h
716 14-06-2010 23:10:01 18.2 C 8.39 g/m*3 18.2 C 0 km/h
717 14-06-2010 23:22:01 18.4 C 8.65 g/m*3 18.4 C 0 km/h
718 14-06-2010 23:34:02 18.4 C 8.49 g/m*3 18.4 C 0 km/h
719 14-06-2010 23:46:02 18.5 C 8.7 g/m*3 18.5 C 0 km/h
720 14-06-2010 23:58:02 18.3 C 8.6 g/m*3 18.3 C 0 km/h
721 15-06-2010 00:10:01 17.7 C 8.6 g/m*3 17.7 C 0 km/h
722 15-06-2010 00:22:02 17.2 C 8.64 g/m*3 17.2 C 0 km/h
723 15-06-2010 00:34:02 17.1 C 8.88 g/m*3 17.1 C 0 km/h
724 15-06-2010 00:46:02 16.8 C 8.72 g/m*3 16.8 C 0 km/h
725 15-06-2010 00:58:02 16.6 C 8.76 g/m*3 16.6 C 0 km/h
Sensor: Nr:Datum:Temp:Abs-Feuchte:Windchill:Wind:
Aussen-T/F 726 15-06-2010 01:10:02 16.4 C 8.93 g/m*3 16.4 C 0 km/h
727 15-06-2010 01:22:02 16.3 C 9.02 g/m*3 16.3 C 0 km/h
728 15-06-2010 01:34:01 16 C 8.99 g/m*3 16 C 0 km/h
729 15-06-2010 01:46:02 15.8 C 9.02 g/m*3 15.8 C 0 km/h
730 15-06-2010 01:58:02 15.6 C 9.18 g/m*3 15.6 C 0 km/h
731 15-06-2010 02:10:01 15.5 C 9.25 g/m*3 15.5 C 0 km/h
732 15-06-2010 02:22:01 15.4 C 9.2 g/m*3 15.4 C 0 km/h
733 15-06-2010 02:34:02 15.3 C 9.14 g/m*3 15.3 C 0 km/h
734 15-06-2010 02:47:04 15.1 C 9.16 g/m*3 15.1 C 0 km/h
735 15-06-2010 02:59:04 15 C 9.36 g/m*3 15 C 0 km/h
736 15-06-2010 03:11:03 14.9 C 9.43 g/m*3 14.9 C 0 km/h
737 15-06-2010 03:23:03 14.8 C 9.5 g/m*3 14.8 C 0 km/h
738 15-06-2010 03:35:02 14.6 C 9.26 g/m*3 14.6 C 0 km/h
739 15-06-2010 03:47:02 14.6 C 9.26 g/m*3 14.6 C 0 km/h
740 15-06-2010 03:59:02 14.3 C 9.09 g/m*3 14.3 C 0 km/h
741 15-06-2010 04:11:02 14.2 C 9.16 g/m*3 14.2 C 0 km/h
742 15-06-2010 04:23:02 13.9 C 9.23 g/m*3 13.9 C 0 km/h
743 15-06-2010 04:35:01 13.7 C 9.12 g/m*3 13.7 C 0 km/h
744 15-06-2010 04:47:02 13.5 C 9.12 g/m*3 13.5 C 0 km/h
745 15-06-2010 04:59:02 13.5 C 9.24 g/m*3 13.5 C 0 km/h
746 15-06-2010 05:11:01 13.5 C 9.24 g/m*3 13.5 C 0 km/h
747 15-06-2010 05:23:01 13.5 C 9.36 g/m*3 13.5 C 0 km/h
748 15-06-2010 05:35:02 13.5 C 9.36 g/m*3 13.5 C 0 km/h
749 15-06-2010 05:47:02 13.4 C 9.3 g/m*3 13.4 C 0 km/h
750 15-06-2010 05:59:03 13.5 C 9.36 g/m*3 13.5 C 0 km/h
Sensor: Nr:Datum:Temp:Abs-Feuchte:Windchill:Wind:
Aussen-T/F 751 15-06-2010 06:11:01 13.6 C 9.42 g/m*3 13.6 C 0 km/h
752 15-06-2010 06:23:02 13.5 C 9.36 g/m*3 13.5 C 0 km/h
753 15-06-2010 06:35:02 13.5 C 9.36 g/m*3 13.5 C 0 km/h
754 15-06-2010 06:47:01 13.5 C 9.47 g/m*3 13.5 C 0 km/h
755 15-06-2010 06:59:01 13.8 C 9.65 g/m*3 13.8 C 0 km/h
756 15-06-2010 07:11:01 14 C 9.77 g/m*3 14 C 0 km/h
757 15-06-2010 07:23:01 14.4 C 9.89 g/m*3 14.4 C 0 km/h
758 15-06-2010 07:35:02 14.9 C 9.94 g/m*3 14.9 C 0 km/h
759 15-06-2010 07:47:02 15.4 C 9.72 g/m*3 15.4 C 0 km/h
760 15-06-2010 07:59:02 15.9 C 9.75 g/m*3 15.9 C 0 km/h
761 15-06-2010 08:11:01 16.3 C 9.57 g/m*3 16.3 C 0 km/h
762 15-06-2010 08:23:02 16.7 C 9.52 g/m*3 16.7 C 0 km/h
763 15-06-2010 08:35:01 16.5 C 8.85 g/m*3 16.5 C 0 km/h
764 15-06-2010 08:47:02 16.8 C 8.86 g/m*3 16.8 C 0 km/h
765 15-06-2010 08:59:02 17.1 C 8.73 g/m*3 17.1 C 0 km/h
766 15-06-2010 09:11:01 17.1 C 8.44 g/m*3 17.1 C 0 km/h
767 15-06-2010 09:23:01 17.2 C 8.35 g/m*3 17.2 C 0 km/h
768 15-06-2010 09:35:02 17.8 C 8.5 g/m*3 17.8 C 0 km/h
769 15-06-2010 09:47:02 17.9 C 8.4 g/m*3 17.9 C 0 km/h
770 15-06-2010 09:59:02 18.5 C 8.07 g/m*3 18.5 C 0 km/h
771 15-06-2010 10:11:01 19 C 8.15 g/m*3 19 C 0 km/h
772 15-06-2010 10:23:01 20 C 7.78 g/m*3 20 C 0 km/h
773 15-06-2010 10:35:02 20 C 7.95 g/m*3 20 C 0 km/h
774 15-06-2010 10:47:02 19.9 C 7.9 g/m*3 19.9 C 0 km/h
775 15-06-2010 10:59:02 19.7 C 7.98 g/m*3 19.7 C 0 km/h
Sensor: Nr:Datum:Temp:Abs-Feuchte:Windchill:Wind:
Aussen-T/F 776 15-06-2010 11:11:02 20.3 C 7.91 g/m*3 20.3 C 0 km/h
777 15-06-2010 11:23:02 20.9 C 8.01 g/m*3 20.9 C 0 km/h
778 15-06-2010 11:35:02 20.4 C 7.78 g/m*3 20.4 C 0 km/h
779 15-06-2010 11:47:02 21.3 C 8.2 g/m*3 21.3 C 0 km/h
780 15-06-2010 11:59:02 20.6 C 8.23 g/m*3 20.6 C 0 km/h
781 15-06-2010 12:11:02 21.1 C 8.29 g/m*3 21.1 C 0 km/h
782 15-06-2010 12:23:02 21.2 C 8.15 g/m*3 21.2 C 0 km/h
783 15-06-2010 12:35:02 21.2 C 8.15 g/m*3 21.2 C 0 km/h
784 15-06-2010 12:47:02 21.6 C 8.16 g/m*3 21.6 C 0 km/h
785 15-06-2010 12:59:02 21.2 C 8.15 g/m*3 21.2 C 0 km/h
786 15-06-2010 13:11:02 20.8 C 8.15 g/m*3 20.8 C 0 km/h
787 15-06-2010 13:23:02 21.3 C 7.83 g/m*3 21.3 C 0 km/h
788 15-06-2010 13:35:02 21 C 7.69 g/m*3 21 C 0 km/h
789 15-06-2010 13:47:02 21.6 C 7.78 g/m*3 21.6 C 0 km/h
790 15-06-2010 13:59:02 23.1 C 7.03 g/m*3 23.1 C 0 km/h
791 15-06-2010 14:11:02 22.1 C 6.83 g/m*3 22.1 C 0 km/h
792 15-06-2010 14:23:02 21.9 C 6.95 g/m*3 21.9 C 0 km/h
793 15-06-2010 14:35:02 21.6 C 7.02 g/m*3 21.6 C 0 km/h
794 15-06-2010 14:47:02 23 C 6.78 g/m*3 23 C 0 km/h
795 15-06-2010 14:59:02 23.9 C 6.71 g/m*3 23.9 C 0 km/h
796 15-06-2010 15:11:02 24.1 C 5.91 g/m*3 24.1 C 0 km/h
797 15-06-2010 15:23:03 23.7 C 5.78 g/m*3 23.7 C 0 km/h
798 15-06-2010 15:35:02 23.9 C 6.06 g/m*3 23.9 C 0 km/h
799 15-06-2010 15:47:03 23.6 C 6.17 g/m*3 23.6 C 0 km/h
800 15-06-2010 15:59:03 23.5 C 6.13 g/m*3 23.5 C 0 km/h
Sensor: Nr:Datum:Temp:Abs-Feuchte:Windchill:Wind:
Aussen-T/F 801 15-06-2010 16:11:02 24.2 C 6.16 g/m*3 24.2 C 0 km/h
802 15-06-2010 16:23:03 23.7 C 5.99 g/m*3 23.7 C 0 km/h
803 15-06-2010 16:35:02 24.6 C 5.85 g/m*3 24.6 C 0 km/h
804 15-06-2010 16:47:03 24.7 C 5.66 g/m*3 24.7 C 0 km/h
805 15-06-2010 16:59:03 24.9 C 5.49 g/m*3 24.9 C 0 km/h
806 15-06-2010 17:11:02 24.6 C 5.63 g/m*3 24.6 C 0 km/h
807 15-06-2010 17:23:02 23.7 C 5.56 g/m*3 23.7 C 0 km/h
808 15-06-2010 17:35:02 24.2 C 5.72 g/m*3 24.2 C 0 km/h
809 15-06-2010 17:47:02 23.4 C 5.47 g/m*3 23.4 C 0 km/h
810 15-06-2010 17:59:02 24.9 C 5.72 g/m*3 24.9 C 0 km/h
811 15-06-2010 18:11:02 25.1 C 5.56 g/m*3 25.1 C 0 km/h
812 15-06-2010 18:23:02 24.6 C 5.85 g/m*3 24.6 C 0 km/h
813 15-06-2010 18:35:02 24.1 C 5.47 g/m*3 24.1 C 0 km/h
814 15-06-2010 18:47:02 23.5 C 5.71 g/m*3 23.5 C 0 km/h
815 15-06-2010 18:59:02 24.3 C 5.53 g/m*3 24.3 C 0 km/h
816 15-06-2010 19:11:01 23.1 C 5.37 g/m*3 23.1 C 0 km/h
817 15-06-2010 19:23:02 23.3 C 5.44 g/m*3 23.3 C 0 km/h
818 15-06-2010 19:35:02 23.2 C 5.41 g/m*3 23.2 C 0 km/h
819 15-06-2010 19:47:01 23.4 C 5.47 g/m*3 23.4 C 0 km/h
820 15-06-2010 19:59:01 23.8 C 5.59 g/m*3 23.8 C 0 km/h
821 15-06-2010 20:11:01 22.8 C 5.49 g/m*3 22.8 C 0 km/h
822 15-06-2010 20:23:01 21.7 C 5.72 g/m*3 21.7 C 0 km/h
823 15-06-2010 20:35:02 21.9 C 5.98 g/m*3 21.9 C 0 km/h
824 15-06-2010 20:47:02 21.1 C 5.53 g/m*3 21.1 C 0 km/h
825 15-06-2010 20:59:02 20.4 C 5.66 g/m*3 20.4 C 0 km/h
Sensor: Nr:Datum:Temp:Abs-Feuchte:Windchill:Wind:
Aussen-T/F 826 15-06-2010 21:11:02 20 C 5.36 g/m*3 20 C 0 km/h
827 15-06-2010 21:23:02 19.7 C 5.77 g/m*3 19.7 C 0 km/h
828 15-06-2010 21:35:02 19.2 C 5.77 g/m*3 19.2 C 0 km/h
829 15-06-2010 21:47:02 18.7 C 5.6 g/m*3 18.7 C 0 km/h
830 15-06-2010 21:59:02 18.3 C 5.63 g/m*3 18.3 C 0 km/h
831 15-06-2010 22:11:02 18 C 5.53 g/m*3 18 C 0 km/h
832 15-06-2010 22:24:01 17.7 C 5.58 g/m*3 17.7 C 0 km/h
833 15-06-2010 22:36:01 17.3 C 5.45 g/m*3 17.3 C 0 km/h
834 15-06-2010 22:48:01 17.1 C 5.39 g/m*3 17.1 C 0 km/h
835 15-06-2010 23:00:01 16.9 C 5.75 g/m*3 16.9 C 0 km/h
836 15-06-2010 23:12:01 16.6 C 5.79 g/m*3 16.6 C 0 km/h
837 15-06-2010 23:24:01 16.1 C 5.89 g/m*3 16.1 C 0 km/h
838 15-06-2010 23:36:01 15.8 C 6.06 g/m*3 15.8 C 0 km/h
839 15-06-2010 23:48:01 15.4 C 6.04 g/m*3 15.4 C 0 km/h
840 16-06-2010 00:00:01 15.2 C 6.1 g/m*3 15.2 C 0 km/h
841 16-06-2010 00:12:01 15 C 5.9 g/m*3 15 C 0 km/h
842 16-06-2010 00:24:02 14.6 C 6.01 g/m*3 14.6 C 0 km/h
843 16-06-2010 00:36:02 14.4 C 6.06 g/m*3 14.4 C 0 km/h
844 16-06-2010 00:48:02 14.2 C 6.11 g/m*3 14.2 C 0 km/h
845 16-06-2010 01:00:02 13.8 C 6.08 g/m*3 13.8 C 0 km/h
846 16-06-2010 01:12:02 13.5 C 6.2 g/m*3 13.5 C 0 km/h
847 16-06-2010 01:24:02 13.4 C 6.28 g/m*3 13.4 C 0 km/h
848 16-06-2010 01:36:02 13.2 C 6.2 g/m*3 13.2 C 0 km/h
849 16-06-2010 01:48:02 13.1 C 6.28 g/m*3 13.1 C 0 km/h
850 16-06-2010 02:00:02 13 C 6.24 g/m*3 13 C 0 km/h
Sensor: Nr:Datum:Temp:Abs-Feuchte:Windchill:Wind:
Aussen-T/F 851 16-06-2010 02:12:02 12.9 C 6.2 g/m*3 12.9 C 0 km/h
852 16-06-2010 02:24:02 12.7 C 6.12 g/m*3 12.7 C 0 km/h
853 16-06-2010 02:36:02 12.5 C 6.05 g/m*3 12.5 C 0 km/h
854 16-06-2010 02:48:02 12.4 C 6.12 g/m*3 12.4 C 0 km/h
855 16-06-2010 03:00:02 12.2 C 6.04 g/m*3 12.2 C 0 km/h
856 16-06-2010 03:12:02 12 C 6.07 g/m*3 12 C 0 km/h
857 16-06-2010 03:24:02 11.8 C 6.1 g/m*3 11.8 C 0 km/h
858 16-06-2010 03:36:02 11.6 C 6.13 g/m*3 11.6 C 0 km/h
859 16-06-2010 03:48:02 11.5 C 6.09 g/m*3 11.5 C 0 km/h
860 16-06-2010 04:00:02 11.4 C 6.16 g/m*3 11.4 C 0 km/h
861 16-06-2010 04:12:02 11.3 C 6.22 g/m*3 11.3 C 0 km/h
862 16-06-2010 04:24:03 11.1 C 6.14 g/m*3 11.1 C 0 km/h
863 16-06-2010 04:36:03 11.1 C 6.04 g/m*3 11.1 C 0 km/h
864 16-06-2010 04:48:03 11.1 C 6.14 g/m*3 11.1 C 0 km/h
865 16-06-2010 05:00:03 10.9 C 6.17 g/m*3 10.9 C 0 km/h
866 16-06-2010 05:12:03 10.8 C 6.23 g/m*3 10.8 C 0 km/h
867 16-06-2010 05:24:03 10.6 C 6.15 g/m*3 10.6 C 0 km/h
868 16-06-2010 05:36:03 10.5 C 6.21 g/m*3 10.5 C 0 km/h
869 16-06-2010 05:48:03 10.5 C 6.21 g/m*3 10.5 C 0 km/h
870 16-06-2010 06:00:03 10.5 C 6.3 g/m*3 10.5 C 0 km/h
871 16-06-2010 06:12:03 10.6 C 6.34 g/m*3 10.6 C 0 km/h
872 16-06-2010 06:24:03 10.7 C 6.48 g/m*3 10.7 C 0 km/h
873 16-06-2010 06:36:03 10.8 C 6.52 g/m*3 10.8 C 0 km/h
874 16-06-2010 06:48:03 10.9 C 6.56 g/m*3 10.9 C 0 km/h
875 16-06-2010 07:00:03 11.1 C 6.65 g/m*3 11.1 C 0 km/h
Sensor: Nr:Datum:Temp:Abs-Feuchte:Windchill:Wind:
Aussen-T/F 876 16-06-2010 07:12:02 11.5 C 6.71 g/m*3 11.5 C 0 km/h
877 16-06-2010 07:24:01 11.9 C 6.88 g/m*3 11.9 C 0 km/h
878 16-06-2010 07:36:02 12.1 C 6.86 g/m*3 12.1 C 0 km/h
879 16-06-2010 07:48:02 12.5 C 6.82 g/m*3 12.5 C 0 km/h
880 16-06-2010 08:00:02 12.9 C 6.76 g/m*3 12.9 C 0 km/h
881 16-06-2010 08:12:02 13.3 C 6.47 g/m*3 13.3 C 0 km/h
882 16-06-2010 08:24:02 13.7 C 6.39 g/m*3 13.7 C 0 km/h
883 16-06-2010 08:36:02 14.1 C 6.07 g/m*3 14.1 C 0 km/h
884 16-06-2010 08:48:01 14.5 C 5.97 g/m*3 14.5 C 0 km/h
885 16-06-2010 09:00:01 14.9 C 5.86 g/m*3 14.9 C 0 km/h
886 16-06-2010 09:12:02 15.5 C 5.82 g/m*3 15.5 C 0 km/h
887 16-06-2010 09:24:01 16 C 5.59 g/m*3 16 C 0 km/h
888 16-06-2010 09:36:01 16.5 C 5.76 g/m*3 16.5 C 0 km/h
889 16-06-2010 09:48:02 16.9 C 5.61 g/m*3 16.9 C 0 km/h
890 16-06-2010 10:00:02 17.3 C 5.3 g/m*3 17.3 C 0 km/h
891 16-06-2010 10:12:02 17.5 C 5.37 g/m*3 17.5 C 0 km/h
892 16-06-2010 10:24:02 18.3 C 5.32 g/m*3 18.3 C 0 km/h
893 16-06-2010 10:36:02 18.6 C 5.09 g/m*3 18.6 C 0 km/h
894 16-06-2010 10:48:02 19.1 C 4.92 g/m*3 19.1 C 0 km/h
895 16-06-2010 11:00:02 19.4 C 4.5 g/m*3 19.4 C 0 km/h
896 16-06-2010 11:12:02 19.7 C 4.75 g/m*3 19.7 C 0 km/h
897 16-06-2010 11:24:02 20.3 C 4.4 g/m*3 20.3 C 0 km/h
898 16-06-2010 11:36:02 21.3 C 4.66 g/m*3 21.3 C 0 km/h
899 16-06-2010 11:48:02 21.7 C 4.58 g/m*3 21.7 C 0 km/h
900 16-06-2010 12:00:02 22.3 C 4.54 g/m*3 22.3 C 0 km/h
Sensor: Nr:Datum:Temp:Abs-Feuchte:Windchill:Wind:
Aussen-T/F 901 16-06-2010 12:12:02 23 C 4.32 g/m*3 23 C 0 km/h
902 16-06-2010 12:24:02 23.7 C 4.49 g/m*3 23.7 C 0 km/h
903 16-06-2010 12:36:01 23.7 C 4.28 g/m*3 23.7 C 0 km/h
904 16-06-2010 12:48:02 24.4 C 4.45 g/m*3 24.4 C 0 km/h
905 16-06-2010 13:00:02 25.1 C 4.63 g/m*3 25.1 C 0 km/h
906 16-06-2010 13:12:01 25.6 C 4.76 g/m*3 25.6 C 0 km/h
907 16-06-2010 13:24:02 26.2 C 4.92 g/m*3 26.2 C 0 km/h
908 16-06-2010 13:36:02 27.2 C 5.2 g/m*3 27.2 C 0 km/h
909 16-06-2010 13:48:02 27.1 C 5.18 g/m*3 27.1 C 0 km/h
910 16-06-2010 14:00:03 26.2 C 4.92 g/m*3 26.2 C 0 km/h
911 16-06-2010 14:12:02 25.4 C 4.71 g/m*3 25.4 C 0 km/h
912 16-06-2010 14:24:02 25.4 C 4.71 g/m*3 25.4 C 0 km/h
913 16-06-2010 14:36:02 25.3 C 4.68 g/m*3 25.3 C 0 km/h
914 16-06-2010 14:48:02 25.5 C 4.73 g/m*3 25.5 C 0 km/h
915 16-06-2010 15:00:02 25.7 C 4.79 g/m*3 25.7 C 0 km/h
916 16-06-2010 15:12:02 25.8 C 4.82 g/m*3 25.8 C 0 km/h
917 16-06-2010 15:24:01 26.2 C 4.92 g/m*3 26.2 C 0 km/h
918 16-06-2010 15:36:02 26.5 C 5.01 g/m*3 26.5 C 0 km/h
919 16-06-2010 15:48:02 26.6 C 5.03 g/m*3 26.6 C 0 km/h
920 16-06-2010 16:00:02 27.1 C 5.18 g/m*3 27.1 C 0 km/h
921 16-06-2010 16:12:02 27.2 C 5.2 g/m*3 27.2 C 0 km/h
922 16-06-2010 16:24:02 26.9 C 5.12 g/m*3 26.9 C 0 km/h
923 16-06-2010 16:36:02 27.3 C 5.23 g/m*3 27.3 C 0 km/h
924 16-06-2010 16:48:02 26.9 C 5.12 g/m*3 26.9 C 0 km/h
925 16-06-2010 17:00:02 26.5 C 5.01 g/m*3 26.5 C 0 km/h
Sensor: Nr:Datum:Temp:Abs-Feuchte:Windchill:Wind:
Aussen-T/F 926 16-06-2010 17:12:02 26.3 C 4.95 g/m*3 26.3 C 0 km/h
927 16-06-2010 17:24:02 27.9 C 5.41 g/m*3 27.9 C 0 km/h
928 16-06-2010 17:36:02 27.5 C 5.29 g/m*3 27.5 C 0 km/h
929 16-06-2010 17:48:01 26.5 C 5.01 g/m*3 26.5 C 0 km/h
930 16-06-2010 18:00:01 26.9 C 5.12 g/m*3 26.9 C 0 km/h
931 16-06-2010 18:12:02 26.9 C 5.12 g/m*3 26.9 C 0 km/h
932 16-06-2010 18:24:01 26.9 C 5.12 g/m*3 26.9 C 0 km/h
933 16-06-2010 18:36:01 26.3 C 4.95 g/m*3 26.3 C 0 km/h
934 16-06-2010 18:48:01 26.1 C 4.9 g/m*3 26.1 C 0 km/h
935 16-06-2010 19:00:01 26.6 C 5.03 g/m*3 26.6 C 0 km/h
936 16-06-2010 19:12:02 25.7 C 4.79 g/m*3 25.7 C 0 km/h
937 16-06-2010 19:24:01 24.9 C 4.58 g/m*3 24.9 C 0 km/h
938 16-06-2010 19:36:01 24.1 C 4.59 g/m*3 24.1 C 0 km/h
939 16-06-2010 19:48:01 24.1 C 5.03 g/m*3 24.1 C 0 km/h
940 16-06-2010 20:00:01 23.9 C 5.19 g/m*3 23.9 C 0 km/h
941 16-06-2010 20:12:01 23.1 C 5.17 g/m*3 23.1 C 0 km/h
942 16-06-2010 20:24:02 22.5 C 5.19 g/m*3 22.5 C 0 km/h
943 16-06-2010 20:36:01 22.5 C 5.39 g/m*3 22.5 C 0 km/h
944 16-06-2010 20:48:03 22.2 C 5.3 g/m*3 22.2 C 0 km/h
945 16-06-2010 21:00:03 21.9 C 5.79 g/m*3 21.9 C 0 km/h
946 16-06-2010 21:12:02 21.3 C 5.78 g/m*3 21.3 C 0 km/h
947 16-06-2010 21:24:03 20.8 C 5.79 g/m*3 20.8 C 0 km/h
948 16-06-2010 21:36:02 20.2 C 5.94 g/m*3 20.2 C 0 km/h
949 16-06-2010 21:48:02 19.6 C 5.91 g/m*3 19.6 C 0 km/h
950 16-06-2010 22:00:02 19.1 C 5.74 g/m*3 19.1 C 0 km/h
Sensor: Nr:Datum:Temp:Abs-Feuchte:Windchill:Wind:
Aussen-T/F 951 16-06-2010 22:12:02 18.8 C 5.8 g/m*3 18.8 C 0 km/h
952 16-06-2010 22:24:02 18.5 C 5.7 g/m*3 18.5 C 0 km/h
953 16-06-2010 22:36:02 18.3 C 5.79 g/m*3 18.3 C 0 km/h
954 16-06-2010 22:48:02 18.2 C 5.75 g/m*3 18.2 C 0 km/h
955 16-06-2010 23:00:02 18 C 5.84 g/m*3 18 C 0 km/h
956 16-06-2010 23:12:02 17.6 C 5.85 g/m*3 17.6 C 0 km/h
957 16-06-2010 23:24:02 17.2 C 5.86 g/m*3 17.2 C 0 km/h
958 16-06-2010 23:37:02 17 C 5.93 g/m*3 17 C 0 km/h
959 16-06-2010 23:49:02 16.8 C 6 g/m*3 16.8 C 0 km/h
960 17-06-2010 00:01:02 16.5 C 5.9 g/m*3 16.5 C 0 km/h
961 17-06-2010 00:13:02 16.3 C 5.97 g/m*3 16.3 C 0 km/h
962 17-06-2010 00:25:02 16 C 5.99 g/m*3 16 C 0 km/h
963 17-06-2010 00:37:02 16 C 5.99 g/m*3 16 C 0 km/h
964 17-06-2010 00:49:02 15.8 C 6.06 g/m*3 15.8 C 0 km/h
965 17-06-2010 01:01:02 15.6 C 6.12 g/m*3 15.6 C 0 km/h
966 17-06-2010 01:13:03 15.5 C 5.95 g/m*3 15.5 C 0 km/h
967 17-06-2010 01:25:03 15.4 C 6.04 g/m*3 15.4 C 0 km/h
968 17-06-2010 01:37:03 15.2 C 6.1 g/m*3 15.2 C 0 km/h
969 17-06-2010 01:49:03 15.2 C 6.1 g/m*3 15.2 C 0 km/h
970 17-06-2010 02:01:03 15 C 6.03 g/m*3 15 C 0 km/h
971 17-06-2010 02:13:03 14.9 C 6.12 g/m*3 14.9 C 0 km/h
972 17-06-2010 02:25:03 14.8 C 6.21 g/m*3 14.8 C 0 km/h
973 17-06-2010 02:37:03 14.6 C 6.13 g/m*3 14.6 C 0 km/h
974 17-06-2010 02:49:03 14.5 C 6.22 g/m*3 14.5 C 0 km/h
975 17-06-2010 03:01:03 14.5 C 6.22 g/m*3 14.5 C 0 km/h
Sensor: Nr:Datum:Temp:Abs-Feuchte:Windchill:Wind:
Aussen-T/F 976 17-06-2010 03:13:03 14.5 C 6.09 g/m*3 14.5 C 0 km/h
977 17-06-2010 03:25:03 14.5 C 6.09 g/m*3 14.5 C 0 km/h
978 17-06-2010 03:37:03 14.5 C 6.09 g/m*3 14.5 C 0 km/h
979 17-06-2010 03:49:03 14.4 C 6.06 g/m*3 14.4 C 0 km/h
980 17-06-2010 04:01:03 14.2 C 5.98 g/m*3 14.2 C 0 km/h
981 17-06-2010 04:13:03 14.3 C 6.02 g/m*3 14.3 C 0 km/h
982 17-06-2010 04:25:03 14.1 C 5.95 g/m*3 14.1 C 0 km/h
983 17-06-2010 04:37:03 14.1 C 5.83 g/m*3 14.1 C 0 km/h
984 17-06-2010 04:49:03 14 C 5.91 g/m*3 14 C 0 km/h
985 17-06-2010 05:01:03 13.8 C 5.84 g/m*3 13.8 C 0 km/h
986 17-06-2010 05:13:04 13.8 C 5.84 g/m*3 13.8 C 0 km/h
987 17-06-2010 05:25:04 13.6 C 5.77 g/m*3 13.6 C 0 km/h
988 17-06-2010 05:37:04 13.5 C 5.85 g/m*3 13.5 C 0 km/h
989 17-06-2010 05:49:04 13.4 C 5.93 g/m*3 13.4 C 0 km/h
990 17-06-2010 06:01:04 13.5 C 5.97 g/m*3 13.5 C 0 km/h
991 17-06-2010 06:13:04 13.5 C 5.97 g/m*3 13.5 C 0 km/h
992 17-06-2010 06:25:04 13.7 C 6.16 g/m*3 13.7 C 0 km/h
993 17-06-2010 06:37:04 14.1 C 6.19 g/m*3 14.1 C 0 km/h
994 17-06-2010 06:49:04 14.4 C 6.43 g/m*3 14.4 C 0 km/h
995 17-06-2010 07:01:03 14.4 C 6.3 g/m*3 14.4 C 0 km/h
996 17-06-2010 07:13:04 14.7 C 6.17 g/m*3 14.7 C 0 km/h
997 17-06-2010 07:25:02 15.1 C 6.19 g/m*3 15.1 C 0 km/h
998 17-06-2010 07:37:03 15.5 C 6.21 g/m*3 15.5 C 0 km/h
999 17-06-2010 07:49:02 16 C 6.54 g/m*3 16 C 0 km/h
1000 17-06-2010 08:01:02 16.2 C 6.62 g/m*3 16.2 C 0 km/h
Sensor: Nr:Datum:Temp:Abs-Feuchte:Windchill:Wind:
Aussen-T/F 1001 17-06-2010 08:13:03 16.5 C 6.6 g/m*3 16.5 C 0 km/h
1002 17-06-2010 08:25:01 16.6 C 6.64 g/m*3 16.6 C 0 km/h
1003 17-06-2010 08:37:02 16.6 C 6.5 g/m*3 16.6 C 0 km/h
1004 17-06-2010 08:49:02 16.8 C 6.72 g/m*3 16.8 C 0 km/h
1005 17-06-2010 09:01:02 16.7 C 6.68 g/m*3 16.7 C 0 km/h
1006 17-06-2010 09:13:02 15.1 C 7.61 g/m*3 15.1 C 0 km/h
1007 17-06-2010 09:25:01 13.9 C 8.27 g/m*3 13.9 C 0 km/h
1008 17-06-2010 09:37:02 13.5 C 8.66 g/m*3 13.5 C 0 km/h
1009 17-06-2010 09:49:01 13.1 C 8.67 g/m*3 13.1 C 0 km/h
1010 17-06-2010 10:01:02 12.9 C 9.02 g/m*3 12.9 C 0 km/h
1011 17-06-2010 10:13:02 12.9 C 9.47 g/m*3 12.9 C 0 km/h
1012 17-06-2010 10:25:02 13 C 9.64 g/m*3 13 C 0 km/h
1013 17-06-2010 10:37:02 13.2 C 9.99 g/m*3 13.2 C 0 km/h
1014 17-06-2010 10:49:01 13.2 C 9.99 g/m*3 13.2 C 0 km/h
1015 17-06-2010 11:01:02 13.5 C 10.29 g/m*3 13.5 C 0 km/h
1016 17-06-2010 11:13:02 13.8 C 10.48 g/m*3 13.8 C 0 km/h
1017 17-06-2010 11:25:02 13.8 C 10.48 g/m*3 13.8 C 0 km/h
1018 17-06-2010 11:37:02 14 C 10.61 g/m*3 14 C 0 km/h
1019 17-06-2010 11:49:02 13.9 C 10.67 g/m*3 13.9 C 0 km/h
1020 17-06-2010 12:01:02 14 C 10.74 g/m*3 14 C 0 km/h
1021 17-06-2010 12:13:02 14 C 10.74 g/m*3 14 C 0 km/h
1022 17-06-2010 12:25:02 13.7 C 10.54 g/m*3 13.7 C 0 km/h
1023 17-06-2010 12:37:01 13.8 C 10.72 g/m*3 13.8 C 0 km/h
1024 17-06-2010 12:49:02 13.8 C 10.72 g/m*3 13.8 C 0 km/h
1025 17-06-2010 13:01:01 13.7 C 10.66 g/m*3 13.7 C 0 km/h
Sensor: Nr:Datum:Temp:Abs-Feuchte:Windchill:Wind:
Aussen-T/F 1026 17-06-2010 13:13:01 13.7 C 10.78 g/m*3 13.7 C 0 km/h
1027 17-06-2010 13:25:02 13.8 C 10.84 g/m*3 13.8 C 0 km/h
1028 17-06-2010 13:37:01 13.8 C 10.84 g/m*3 13.8 C 0 km/h
1029 17-06-2010 13:49:02 13.9 C 10.91 g/m*3 13.9 C 0 km/h
1030 17-06-2010 14:01:02 13.7 C 10.89 g/m*3 13.7 C 0 km/h
1031 17-06-2010 14:13:02 13.9 C 11.03 g/m*3 13.9 C 0 km/h
1032 17-06-2010 14:25:02 14.2 C 11.23 g/m*3 14.2 C 0 km/h
1033 17-06-2010 14:37:02 14.6 C 11.51 g/m*3 14.6 C 0 km/h
1034 17-06-2010 14:49:02 15.4 C 11.96 g/m*3 15.4 C 0 km/h
1035 17-06-2010 15:01:01 15.9 C 12.19 g/m*3 15.9 C 0 km/h
1036 17-06-2010 15:13:01 16.4 C 12.28 g/m*3 16.4 C 0 km/h
1037 17-06-2010 15:25:02 16.6 C 12.29 g/m*3 16.6 C 0 km/h
1038 17-06-2010 15:37:01 17 C 12.44 g/m*3 17 C 0 km/h
1039 17-06-2010 15:49:02 17 C 11.87 g/m*3 17 C 0 km/h
1040 17-06-2010 16:01:01 17 C 12.01 g/m*3 17 C 0 km/h
1041 17-06-2010 16:13:01 16.9 C 12.08 g/m*3 16.9 C 0 km/h
1042 17-06-2010 16:25:02 16.8 C 12.01 g/m*3 16.8 C 0 km/h
1043 17-06-2010 16:37:01 16.9 C 12.08 g/m*3 16.9 C 0 km/h
1044 17-06-2010 16:49:03 17 C 12.01 g/m*3 17 C 0 km/h
1045 17-06-2010 17:01:02 17 C 11.87 g/m*3 17 C 0 km/h
1046 17-06-2010 17:13:02 16.6 C 11.72 g/m*3 16.6 C 0 km/h
1047 17-06-2010 17:25:02 16.5 C 11.8 g/m*3 16.5 C 0 km/h
1048 17-06-2010 17:37:02 16.5 C 11.8 g/m*3 16.5 C 0 km/h
1049 17-06-2010 17:49:02 16.9 C 11.94 g/m*3 16.9 C 0 km/h
1050 17-06-2010 18:01:03 17 C 11.58 g/m*3 17 C 0 km/h
Sensor: Nr:Datum:Temp:Abs-Feuchte:Windchill:Wind:
Aussen-T/F 1051 17-06-2010 18:13:04 17 C 11.43 g/m*3 17 C 0 km/h
1052 17-06-2010 18:25:03 17.2 C 11.72 g/m*3 17.2 C 0 km/h
1053 17-06-2010 18:37:03 17.2 C 11.86 g/m*3 17.2 C 0 km/h
1054 17-06-2010 18:49:02 17.2 C 11.86 g/m*3 17.2 C 0 km/h
1055 17-06-2010 19:01:02 16.8 C 11.72 g/m*3 16.8 C 0 km/h
1056 17-06-2010 19:13:02 16.8 C 12.01 g/m*3 16.8 C 0 km/h
1057 17-06-2010 19:25:01 16.7 C 12.08 g/m*3 16.7 C 0 km/h
1058 17-06-2010 19:37:02 16.5 C 12.08 g/m*3 16.5 C 0 km/h
1059 17-06-2010 19:49:02 16.3 C 11.93 g/m*3 16.3 C 0 km/h
1060 17-06-2010 20:01:02 16.2 C 12 g/m*3 16.2 C 0 km/h
1061 17-06-2010 20:13:02 16 C 11.85 g/m*3 16 C 0 km/h
1062 17-06-2010 20:25:02 15.8 C 11.85 g/m*3 15.8 C 0 km/h
1063 17-06-2010 20:37:02 15.6 C 11.7 g/m*3 15.6 C 0 km/h
1064 17-06-2010 20:49:01 15.5 C 11.63 g/m*3 15.5 C 0 km/h
1065 17-06-2010 21:01:02 15.5 C 11.76 g/m*3 15.5 C 0 km/h
1066 17-06-2010 21:13:02 15.5 C 11.76 g/m*3 15.5 C 0 km/h
1067 17-06-2010 21:25:02 15.6 C 11.84 g/m*3 15.6 C 0 km/h
1068 17-06-2010 21:37:02 15.4 C 11.69 g/m*3 15.4 C 0 km/h
1069 17-06-2010 21:49:02 15.3 C 11.62 g/m*3 15.3 C 0 km/h
1070 17-06-2010 22:01:02 15.2 C 11.68 g/m*3 15.2 C 0 km/h
1071 17-06-2010 22:13:02 15.2 C 11.68 g/m*3 15.2 C 0 km/h
1072 17-06-2010 22:25:01 15 C 11.54 g/m*3 15 C 0 km/h
1073 17-06-2010 22:37:02 15 C 11.54 g/m*3 15 C 0 km/h
1074 17-06-2010 22:50:02 14.9 C 11.6 g/m*3 14.9 C 0 km/h
1075 17-06-2010 23:02:02 14.8 C 11.53 g/m*3 14.8 C 0 km/h
Sensor: Nr:Datum:Temp:Abs-Feuchte:Windchill:Wind:
Aussen-T/F 1076 17-06-2010 23:14:02 14.6 C 11.39 g/m*3 14.6 C 0 km/h
1077 17-06-2010 23:26:02 14.4 C 11.25 g/m*3 14.4 C 0 km/h
1078 17-06-2010 23:38:02 14.3 C 11.18 g/m*3 14.3 C 0 km/h
1079 17-06-2010 23:50:02 14.2 C 11.11 g/m*3 14.2 C 0 km/h
1080 18-06-2010 00:02:02 14 C 10.98 g/m*3 14 C 0 km/h
1081 18-06-2010 00:14:02 13.8 C 10.84 g/m*3 13.8 C 0 km/h
1082 18-06-2010 00:26:02 13.7 C 10.89 g/m*3 13.7 C 0 km/h
1083 18-06-2010 00:38:02 13.7 C 10.89 g/m*3 13.7 C 0 km/h
1084 18-06-2010 00:50:02 13.8 C 10.96 g/m*3 13.8 C 0 km/h
1085 18-06-2010 01:02:02 14 C 11.1 g/m*3 14 C 0 km/h
1086 18-06-2010 01:14:02 14 C 11.1 g/m*3 14 C 0 km/h
1087 18-06-2010 01:26:02 14 C 11.1 g/m*3 14 C 0 km/h
1088 18-06-2010 01:38:02 14.1 C 11.17 g/m*3 14.1 C 0 km/h
1089 18-06-2010 01:50:02 14.1 C 11.17 g/m*3 14.1 C 0 km/h
1090 18-06-2010 02:02:02 14 C 11.1 g/m*3 14 C 0 km/h
1091 18-06-2010 02:14:02 13.9 C 11.03 g/m*3 13.9 C 0 km/h
1092 18-06-2010 02:26:02 13.8 C 10.96 g/m*3 13.8 C 0 km/h
1093 18-06-2010 02:38:02 13.6 C 10.83 g/m*3 13.6 C 0 km/h
1094 18-06-2010 02:50:03 13.5 C 10.76 g/m*3 13.5 C 0 km/h
1095 18-06-2010 03:02:03 13.4 C 10.69 g/m*3 13.4 C 0 km/h
1096 18-06-2010 03:14:03 13.6 C 10.83 g/m*3 13.6 C 0 km/h
1097 18-06-2010 03:26:03 13.7 C 10.89 g/m*3 13.7 C 0 km/h
1098 18-06-2010 03:38:03 13.5 C 10.76 g/m*3 13.5 C 0 km/h
1099 18-06-2010 03:50:03 13.2 C 10.45 g/m*3 13.2 C 0 km/h
1100 18-06-2010 04:02:03 12.9 C 10.26 g/m*3 12.9 C 0 km/h
Sensor: Nr:Datum:Temp:Abs-Feuchte:Windchill:Wind:
Aussen-T/F 1101 18-06-2010 04:14:03 12.7 C 10.13 g/m*3 12.7 C 0 km/h
1102 18-06-2010 04:26:03 12.4 C 9.94 g/m*3 12.4 C 0 km/h
1103 18-06-2010 04:38:03 12.3 C 9.88 g/m*3 12.3 C 0 km/h
1104 18-06-2010 04:50:03 12.2 C 9.82 g/m*3 12.2 C 0 km/h
1105 18-06-2010 05:02:03 12.2 C 9.82 g/m*3 12.2 C 0 km/h
1106 18-06-2010 05:14:03 12.2 C 9.82 g/m*3 12.2 C 0 km/h
1107 18-06-2010 05:26:03 12.1 C 9.76 g/m*3 12.1 C 0 km/h
1108 18-06-2010 05:38:03 12 C 9.7 g/m*3 12 C 0 km/h
1109 18-06-2010 05:50:03 12 C 9.7 g/m*3 12 C 0 km/h
1110 18-06-2010 06:02:03 12 C 9.7 g/m*3 12 C 0 km/h
1111 18-06-2010 06:14:03 12.1 C 9.76 g/m*3 12.1 C 0 km/h
1112 18-06-2010 06:26:03 12.2 C 9.82 g/m*3 12.2 C 0 km/h
1113 18-06-2010 06:38:03 12.2 C 9.82 g/m*3 12.2 C 0 km/h
1114 18-06-2010 06:50:04 12.4 C 9.83 g/m*3 12.4 C 0 km/h
1115 18-06-2010 07:02:02 12.5 C 9.89 g/m*3 12.5 C 0 km/h
1116 18-06-2010 07:14:02 12.7 C 9.91 g/m*3 12.7 C 0 km/h
1117 18-06-2010 07:26:02 12.8 C 9.86 g/m*3 12.8 C 0 km/h
1118 18-06-2010 07:38:02 12.8 C 9.86 g/m*3 12.8 C 0 km/h
1119 18-06-2010 07:50:02 12.9 C 9.81 g/m*3 12.9 C 0 km/h
1120 18-06-2010 08:02:02 13.1 C 9.7 g/m*3 13.1 C 0 km/h
1121 18-06-2010 08:14:02 13.4 C 9.76 g/m*3 13.4 C 0 km/h
1122 18-06-2010 08:26:02 13.5 C 9.83 g/m*3 13.5 C 0 km/h
1123 18-06-2010 08:38:02 13.8 C 9.89 g/m*3 13.8 C 0 km/h
1124 18-06-2010 08:50:02 14.4 C 10.01 g/m*3 14.4 C 0 km/h
1125 18-06-2010 09:02:02 14.8 C 9.88 g/m*3 14.8 C 0 km/h
Sensor: Nr:Datum:Temp:Abs-Feuchte:Windchill:Wind:
Aussen-T/F 1126 18-06-2010 09:14:02 15 C 9.49 g/m*3 15 C 0 km/h
1127 18-06-2010 09:26:02 15.5 C 9.78 g/m*3 15.5 C 0 km/h
1128 18-06-2010 09:38:02 15.7 C 9.77 g/m*3 15.7 C 0 km/h
1129 18-06-2010 09:50:02 16.4 C 9.77 g/m*3 16.4 C 0 km/h
1130 18-06-2010 10:02:03 16.5 C 9.27 g/m*3 16.5 C 0 km/h
1131 18-06-2010 10:14:03 16.6 C 9.46 g/m*3 16.6 C 0 km/h
1132 18-06-2010 10:26:02 16.3 C 9.43 g/m*3 16.3 C 0 km/h
1133 18-06-2010 10:38:02 17 C 9.55 g/m*3 17 C 0 km/h
1134 18-06-2010 10:50:02 16.4 C 8.93 g/m*3 16.4 C 0 km/h
1135 18-06-2010 11:02:02 16.2 C 9.1 g/m*3 16.2 C 0 km/h
1136 18-06-2010 11:14:02 15.9 C 9.07 g/m*3 15.9 C 0 km/h
1137 18-06-2010 11:26:01 16.3 C 9.02 g/m*3 16.3 C 0 km/h
1138 18-06-2010 11:38:02 16.6 C 8.9 g/m*3 16.6 C 0 km/h
1139 18-06-2010 11:50:02 15.9 C 8.53 g/m*3 15.9 C 0 km/h
1140 18-06-2010 12:02:02 15.9 C 8.94 g/m*3 15.9 C 0 km/h
1141 18-06-2010 12:14:02 15.5 C 8.59 g/m*3 15.5 C 0 km/h
1142 18-06-2010 12:26:01 15.3 C 8.88 g/m*3 15.3 C 0 km/h
1143 18-06-2010 12:38:02 15 C 8.72 g/m*3 15 C 0 km/h
1144 18-06-2010 12:50:02 15.6 C 8.91 g/m*3 15.6 C 0 km/h
1145 18-06-2010 13:02:02 15.7 C 8.7 g/m*3 15.7 C 0 km/h
1146 18-06-2010 13:14:03 16.3 C 8.6 g/m*3 16.3 C 0 km/h
1147 18-06-2010 13:26:01 16.1 C 8.64 g/m*3 16.1 C 0 km/h
1148 18-06-2010 13:38:02 15.8 C 8.48 g/m*3 15.8 C 0 km/h
1149 18-06-2010 13:50:02 15.3 C 8.49 g/m*3 15.3 C 0 km/h
1150 18-06-2010 14:02:02 15.3 C 8.49 g/m*3 15.3 C 0 km/h
Sensor: Nr:Datum:Temp:Abs-Feuchte:Windchill:Wind:
Aussen-T/F 1151 18-06-2010 14:14:02 14.9 C 8.54 g/m*3 14.9 C 0 km/h
1152 18-06-2010 14:26:01 14.7 C 8.44 g/m*3 14.7 C 0 km/h
1153 18-06-2010 14:38:02 14.5 C 8.46 g/m*3 14.5 C 0 km/h
1154 18-06-2010 14:50:02 14.9 C 8.54 g/m*3 14.9 C 0 km/h
1155 18-06-2010 15:02:02 15.4 C 8.54 g/m*3 15.4 C 0 km/h
1156 18-06-2010 15:14:03 14.5 C 8.33 g/m*3 14.5 C 0 km/h
1157 18-06-2010 15:26:02 14.9 C 8.54 g/m*3 14.9 C 0 km/h
1158 18-06-2010 15:38:02 15.2 C 8.44 g/m*3 15.2 C 0 km/h
1159 18-06-2010 15:50:02 14.7 C 8.18 g/m*3 14.7 C 0 km/h
1160 18-06-2010 16:02:03 14.8 C 8.49 g/m*3 14.8 C 0 km/h
1161 18-06-2010 16:14:03 14.7 C 8.44 g/m*3 14.7 C 0 km/h
1162 18-06-2010 16:26:03 15 C 8.33 g/m*3 15 C 0 km/h
1163 18-06-2010 16:38:02 15.6 C 8.38 g/m*3 15.6 C 0 km/h
1164 18-06-2010 16:50:01 16.8 C 7.86 g/m*3 16.8 C 0 km/h
1165 18-06-2010 17:02:02 17.9 C 7.94 g/m*3 17.9 C 0 km/h
1166 18-06-2010 17:14:02 19.1 C 7.21 g/m*3 19.1 C 0 km/h
1167 18-06-2010 17:26:01 19.2 C 6.93 g/m*3 19.2 C 0 km/h
1168 18-06-2010 17:38:02 19.8 C 7.34 g/m*3 19.8 C 0 km/h
1169 18-06-2010 17:50:02 19.8 C 6.83 g/m*3 19.8 C 0 km/h
1170 18-06-2010 18:02:03 21 C 6.96 g/m*3 21 C 0 km/h
1171 18-06-2010 18:14:03 20.8 C 6.88 g/m*3 20.8 C 0 km/h
1172 18-06-2010 18:26:02 21.5 C 6.98 g/m*3 21.5 C 0 km/h
1173 18-06-2010 18:38:02 21.8 C 6.91 g/m*3 21.8 C 0 km/h
1174 18-06-2010 18:50:02 22.2 C 6.87 g/m*3 22.2 C 0 km/h
1175 18-06-2010 19:02:02 20.8 C 6.7 g/m*3 20.8 C 0 km/h
Sensor: Nr:Datum:Temp:Abs-Feuchte:Windchill:Wind:
Aussen-T/F 1176 18-06-2010 19:14:02 19.9 C 7.04 g/m*3 19.9 C 0 km/h
1177 18-06-2010 19:26:02 19.1 C 7.21 g/m*3 19.1 C 0 km/h
1178 18-06-2010 19:38:02 18.9 C 7.45 g/m*3 18.9 C 0 km/h
1179 18-06-2010 19:50:02 18.9 C 7.61 g/m*3 18.9 C 0 km/h
1180 18-06-2010 20:02:02 18.5 C 7.44 g/m*3 18.5 C 0 km/h
1181 18-06-2010 20:14:02 18.1 C 7.42 g/m*3 18.1 C 0 km/h
1182 18-06-2010 20:26:02 17.8 C 7.59 g/m*3 17.8 C 0 km/h
1183 18-06-2010 20:38:02 17.5 C 7.75 g/m*3 17.5 C 0 km/h
1184 18-06-2010 20:50:01 17.2 C 7.91 g/m*3 17.2 C 0 km/h
1185 18-06-2010 21:02:02 16 C 8.72 g/m*3 16 C 0 km/h
1186 18-06-2010 21:14:02 15 C 9.36 g/m*3 15 C 0 km/h
1187 18-06-2010 21:26:01 14.8 C 9.75 g/m*3 14.8 C 0 km/h
1188 18-06-2010 21:38:01 14.7 C 9.82 g/m*3 14.7 C 0 km/h
1189 18-06-2010 21:50:01 14.6 C 9.89 g/m*3 14.6 C 0 km/h
1190 18-06-2010 22:02:01 14.7 C 9.82 g/m*3 14.7 C 0 km/h
1191 18-06-2010 22:14:01 14.7 C 9.57 g/m*3 14.7 C 0 km/h
1192 18-06-2010 22:26:02 14.8 C 9.5 g/m*3 14.8 C 0 km/h
1193 18-06-2010 22:38:01 15 C 9.49 g/m*3 15 C 0 km/h
1194 18-06-2010 22:50:02 15.1 C 9.29 g/m*3 15.1 C 0 km/h
1195 18-06-2010 23:02:01 15 C 9.23 g/m*3 15 C 0 km/h
1196 18-06-2010 23:14:01 14.8 C 8.61 g/m*3 14.8 C 0 km/h
1197 18-06-2010 23:27:04 14.8 C 6.84 g/m*3 14.8 C 0 km/h
1198 18-06-2010 23:39:04 14.7 C 6.55 g/m*3 14.7 C 0 km/h
1199 18-06-2010 23:51:04 14.7 C 6.42 g/m*3 14.7 C 0 km/h
1200 19-06-2010 00:03:04 14.6 C 6.63 g/m*3 14.6 C 0 km/h
Sensor: Nr:Datum:Temp:Abs-Feuchte:Windchill:Wind:
Aussen-T/F 1201 19-06-2010 00:15:04 14.5 C 6.72 g/m*3 14.5 C 0 km/h
1202 19-06-2010 00:27:04 14.4 C 6.92 g/m*3 14.4 C 0 km/h
1203 19-06-2010 00:39:04 14.3 C 7.13 g/m*3 14.3 C 0 km/h
1204 19-06-2010 00:51:04 14.2 C 7.08 g/m*3 14.2 C 0 km/h
1205 19-06-2010 01:03:04 14 C 7.12 g/m*3 14 C 0 km/h
1206 19-06-2010 01:15:04 13.8 C 7.27 g/m*3 13.8 C 0 km/h
1207 19-06-2010 01:27:05 13.6 C 7.18 g/m*3 13.6 C 0 km/h
1208 19-06-2010 01:39:05 13.4 C 7.09 g/m*3 13.4 C 0 km/h
1209 19-06-2010 01:51:05 13.2 C 7 g/m*3 13.2 C 0 km/h
1210 19-06-2010 02:03:05 12.8 C 6.94 g/m*3 12.8 C 0 km/h
1211 19-06-2010 02:15:05 12.7 C 6.9 g/m*3 12.7 C 0 km/h
1212 19-06-2010 02:27:05 12.5 C 6.82 g/m*3 12.5 C 0 km/h
1213 19-06-2010 02:39:05 12.4 C 6.77 g/m*3 12.4 C 0 km/h
1214 19-06-2010 02:51:05 12.4 C 6.77 g/m*3 12.4 C 0 km/h
1215 19-06-2010 03:03:05 12.5 C 6.82 g/m*3 12.5 C 0 km/h
1216 19-06-2010 03:15:05 12.5 C 6.71 g/m*3 12.5 C 0 km/h
1217 19-06-2010 03:27:05 12.1 C 6.54 g/m*3 12.1 C 0 km/h
1218 19-06-2010 03:39:05 11.8 C 6.74 g/m*3 11.8 C 0 km/h
1219 19-06-2010 03:51:05 11.5 C 6.61 g/m*3 11.5 C 0 km/h
1220 19-06-2010 04:03:05 11.2 C 6.49 g/m*3 11.2 C 0 km/h
1221 19-06-2010 04:15:05 11 C 6.51 g/m*3 11 C 0 km/h
1222 19-06-2010 04:27:05 10.9 C 6.56 g/m*3 10.9 C 0 km/h
1223 19-06-2010 04:39:05 10.7 C 6.58 g/m*3 10.7 C 0 km/h
1224 19-06-2010 04:51:05 10.9 C 6.66 g/m*3 10.9 C 0 km/h
1225 19-06-2010 05:03:05 11 C 6.61 g/m*3 11 C 0 km/h
Sensor: Nr:Datum:Temp:Abs-Feuchte:Windchill:Wind:
Aussen-T/F 1226 19-06-2010 05:15:05 11.1 C 6.55 g/m*3 11.1 C 0 km/h
1227 19-06-2010 05:27:06 11.2 C 6.59 g/m*3 11.2 C 0 km/h
1228 19-06-2010 05:39:06 11.2 C 6.59 g/m*3 11.2 C 0 km/h
1229 19-06-2010 05:51:06 11.2 C 6.59 g/m*3 11.2 C 0 km/h
1230 19-06-2010 06:03:06 11.4 C 6.77 g/m*3 11.4 C 0 km/h
1231 19-06-2010 06:15:06 11.4 C 6.77 g/m*3 11.4 C 0 km/h
1232 19-06-2010 06:27:06 11.5 C 6.82 g/m*3 11.5 C 0 km/h
1233 19-06-2010 06:39:06 11.6 C 6.86 g/m*3 11.6 C 0 km/h
1234 19-06-2010 06:51:06 11.6 C 6.86 g/m*3 11.6 C 0 km/h
1235 19-06-2010 07:03:06 11.8 C 6.84 g/m*3 11.8 C 0 km/h
1236 19-06-2010 07:15:06 11.8 C 6.84 g/m*3 11.8 C 0 km/h
1237 19-06-2010 07:27:06 12 C 6.71 g/m*3 12 C 0 km/h
1238 19-06-2010 07:39:06 11.9 C 6.57 g/m*3 11.9 C 0 km/h
1239 19-06-2010 07:51:06 11.8 C 6.53 g/m*3 11.8 C 0 km/h
1240 19-06-2010 08:03:06 12 C 6.5 g/m*3 12 C 0 km/h
1241 19-06-2010 08:15:03 12 C 6.39 g/m*3 12 C 0 km/h
1242 19-06-2010 08:27:03 12 C 6.5 g/m*3 12 C 0 km/h
1243 19-06-2010 08:39:03 11.9 C 6.46 g/m*3 11.9 C 0 km/h
1244 19-06-2010 08:51:02 11.9 C 6.46 g/m*3 11.9 C 0 km/h
1245 19-06-2010 09:03:02 11.8 C 6.63 g/m*3 11.8 C 0 km/h
1246 19-06-2010 09:15:03 12.1 C 6.97 g/m*3 12.1 C 0 km/h
1247 19-06-2010 09:27:03 12.8 C 6.61 g/m*3 12.8 C 0 km/h
1248 19-06-2010 09:39:02 12.9 C 6.42 g/m*3 12.9 C 0 km/h
1249 19-06-2010 09:51:02 12.8 C 6.38 g/m*3 12.8 C 0 km/h
1250 19-06-2010 10:03:02 12.9 C 6.31 g/m*3 12.9 C 0 km/h
Sensor: Nr:Datum:Temp:Abs-Feuchte:Windchill:Wind:
Aussen-T/F 1251 19-06-2010 10:15:02 11.6 C 6.65 g/m*3 11.6 C 0 km/h
1252 19-06-2010 10:27:02 11.8 C 6.95 g/m*3 11.8 C 0 km/h
1253 19-06-2010 10:39:02 12.4 C 6.77 g/m*3 12.4 C 0 km/h
1254 19-06-2010 10:51:02 12.4 C 6.45 g/m*3 12.4 C 0 km/h
1255 19-06-2010 11:03:02 12.9 C 6.31 g/m*3 12.9 C 0 km/h
1256 19-06-2010 11:15:02 13.6 C 6.47 g/m*3 13.6 C 0 km/h
1257 19-06-2010 11:27:02 13.8 C 5.96 g/m*3 13.8 C 0 km/h
1258 19-06-2010 11:39:02 15.8 C 6.19 g/m*3 15.8 C 0 km/h
1259 19-06-2010 11:51:02 17.6 C 6.15 g/m*3 17.6 C 0 km/h
1260 19-06-2010 12:03:02 16.6 C 5.65 g/m*3 16.6 C 0 km/h
1261 19-06-2010 12:15:02 18.1 C 5.41 g/m*3 18.1 C 0 km/h
1262 19-06-2010 12:27:02 16.9 C 5.03 g/m*3 16.9 C 0 km/h
1263 19-06-2010 12:39:01 15.5 C 5.29 g/m*3 15.5 C 0 km/h
1264 19-06-2010 12:51:02 14.3 C 5.41 g/m*3 14.3 C 0 km/h
1265 19-06-2010 13:03:01 13.4 C 6.16 g/m*3 13.4 C 0 km/h
1266 19-06-2010 13:15:02 15 C 6.28 g/m*3 15 C 0 km/h
1267 19-06-2010 13:27:02 17.3 C 5.89 g/m*3 17.3 C 0 km/h
1268 19-06-2010 13:39:01 20.4 C 5.48 g/m*3 20.4 C 0 km/h
1269 19-06-2010 13:51:02 18.7 C 5.44 g/m*3 18.7 C 0 km/h
1270 19-06-2010 14:03:02 19.3 C 5.31 g/m*3 19.3 C 0 km/h
1271 19-06-2010 14:15:02 19.3 C 4.98 g/m*3 19.3 C 0 km/h
1272 19-06-2010 14:27:02 18.3 C 4.69 g/m*3 18.3 C 0 km/h
1273 19-06-2010 14:39:02 16.8 C 5 g/m*3 16.8 C 0 km/h
1274 19-06-2010 14:51:02 17.6 C 5.1 g/m*3 17.6 C 0 km/h
1275 19-06-2010 15:03:01 18.6 C 4.77 g/m*3 18.6 C 0 km/h
Sensor: Nr:Datum:Temp:Abs-Feuchte:Windchill:Wind:
Aussen-T/F 1276 19-06-2010 15:15:01 18.7 C 4.8 g/m*3 18.7 C 0 km/h
1277 19-06-2010 15:27:01 18.7 C 4.96 g/m*3 18.7 C 0 km/h
1278 19-06-2010 15:39:02 17.4 C 4.74 g/m*3 17.4 C 0 km/h
1279 19-06-2010 15:51:02 18.2 C 4.82 g/m*3 18.2 C 0 km/h
1280 19-06-2010 16:03:02 17.9 C 4.73 g/m*3 17.9 C 0 km/h
1281 19-06-2010 16:15:02 17.7 C 5.13 g/m*3 17.7 C 0 km/h
1282 19-06-2010 16:27:02 17.9 C 5.04 g/m*3 17.9 C 0 km/h
1283 19-06-2010 16:39:02 19.9 C 5.33 g/m*3 19.9 C 0 km/h
1284 19-06-2010 16:51:02 20.2 C 4.55 g/m*3 20.2 C 0 km/h
1285 19-06-2010 17:03:02 18.5 C 4.75 g/m*3 18.5 C 0 km/h
1286 19-06-2010 17:15:02 18.2 C 5.13 g/m*3 18.2 C 0 km/h
1287 19-06-2010 17:27:02 18 C 4.92 g/m*3 18 C 0 km/h
1288 19-06-2010 17:39:02 16.8 C 5.15 g/m*3 16.8 C 0 km/h
1289 19-06-2010 17:51:03 16.8 C 5.58 g/m*3 16.8 C 0 km/h
1290 19-06-2010 18:03:03 16.7 C 5.26 g/m*3 16.7 C 0 km/h
1291 19-06-2010 18:15:02 16.9 C 5.47 g/m*3 16.9 C 0 km/h
1292 19-06-2010 18:27:02 16 C 5.59 g/m*3 16 C 0 km/h
1293 19-06-2010 18:39:02 16.3 C 5.55 g/m*3 16.3 C 0 km/h
1294 19-06-2010 18:51:01 15.8 C 5.52 g/m*3 15.8 C 0 km/h
1295 19-06-2010 19:03:03 17.4 C 5.48 g/m*3 17.4 C 0 km/h
1296 19-06-2010 19:15:01 17.2 C 5.13 g/m*3 17.2 C 0 km/h
1297 19-06-2010 19:27:01 16.6 C 5.09 g/m*3 16.6 C 0 km/h
1298 19-06-2010 19:39:02 16.1 C 5.35 g/m*3 16.1 C 0 km/h
1299 19-06-2010 19:51:03 16.1 C 5.76 g/m*3 16.1 C 0 km/h
1300 19-06-2010 20:03:03 15 C 5.26 g/m*3 15 C 0 km/h
Sensor: Nr:Datum:Temp:Abs-Feuchte:Windchill:Wind:
Aussen-T/F 1301 19-06-2010 20:15:02 14.8 C 5.57 g/m*3 14.8 C 0 km/h
1302 19-06-2010 20:27:03 14.8 C 5.83 g/m*3 14.8 C 0 km/h
1303 19-06-2010 20:39:02 14.4 C 5.81 g/m*3 14.4 C 0 km/h
1304 19-06-2010 20:51:01 14.5 C 6.09 g/m*3 14.5 C 0 km/h
1305 19-06-2010 21:03:02 14.5 C 6.09 g/m*3 14.5 C 0 km/h
1306 19-06-2010 21:15:02 14.3 C 6.02 g/m*3 14.3 C 0 km/h
1307 19-06-2010 21:27:02 14.1 C 6.19 g/m*3 14.1 C 0 km/h
1308 19-06-2010 21:39:02 14 C 6.27 g/m*3 14 C 0 km/h
1309 19-06-2010 21:51:02 13.8 C 6.31 g/m*3 13.8 C 0 km/h
1310 19-06-2010 22:03:04 13.6 C 6.24 g/m*3 13.6 C 0 km/h
1311 19-06-2010 22:15:15 13.2 C 6.09 g/m*3 13.2 C 0 km/h
1312 19-06-2010 22:27:15 12.8 C 5.94 g/m*3 12.8 C 0 km/h
1313 19-06-2010 22:39:01 12.6 C 5.97 g/m*3 12.6 C 0 km/h
1314 19-06-2010 22:51:02 12.4 C 6.12 g/m*3 12.4 C 0 km/h
1315 19-06-2010 23:03:01 11.9 C 6.14 g/m*3 11.9 C 0 km/h
1316 19-06-2010 23:15:02 12.2 C 6.26 g/m*3 12.2 C 0 km/h
1317 19-06-2010 23:27:02 12.4 C 6.23 g/m*3 12.4 C 0 km/h
1318 19-06-2010 23:39:01 12.1 C 6.22 g/m*3 12.1 C 0 km/h
1319 19-06-2010 23:51:02 11.8 C 6.31 g/m*3 11.8 C 0 km/h
1320 20-06-2010 00:03:02 11.5 C 6.3 g/m*3 11.5 C 0 km/h
1321 20-06-2010 00:15:02 11.2 C 6.28 g/m*3 11.2 C 0 km/h
1322 20-06-2010 00:27:02 10.8 C 6.33 g/m*3 10.8 C 0 km/h
1323 20-06-2010 00:39:02 10.6 C 6.44 g/m*3 10.6 C 0 km/h
1324 20-06-2010 00:51:02 10.5 C 6.4 g/m*3 10.5 C 0 km/h
1325 20-06-2010 01:03:01 10.6 C 6.15 g/m*3 10.6 C 0 km/h
Sensor: Nr:Datum:Temp:Abs-Feuchte:Windchill:Wind:
Aussen-T/F 1326 20-06-2010 01:15:02 10.6 C 5.95 g/m*3 10.6 C 0 km/h
1327 20-06-2010 01:27:02 10.5 C 5.92 g/m*3 10.5 C 0 km/h
1328 20-06-2010 01:40:01 10.4 C 5.88 g/m*3 10.4 C 0 km/h
1329 20-06-2010 01:52:01 10.2 C 5.9 g/m*3 10.2 C 0 km/h
1330 20-06-2010 02:04:01 10.1 C 5.96 g/m*3 10.1 C 0 km/h
1331 20-06-2010 02:16:01 9.8 C 6.03 g/m*3 9.8 C 0 km/h
1332 20-06-2010 02:28:01 9.6 C 6.05 g/m*3 9.6 C 0 km/h
1333 20-06-2010 02:40:01 9.4 C 6.06 g/m*3 9.4 C 0 km/h
1334 20-06-2010 02:52:01 9.3 C 6.2 g/m*3 9.3 C 0 km/h
1335 20-06-2010 03:04:01 9.3 C 6.38 g/m*3 9.3 C 0 km/h
1336 20-06-2010 03:16:01 9.5 C 6.46 g/m*3 9.5 C 0 km/h
1337 20-06-2010 03:28:02 9.6 C 6.6 g/m*3 9.6 C 0 km/h
1338 20-06-2010 03:40:02 9.5 C 6.74 g/m*3 9.5 C 0 km/h
1339 20-06-2010 03:52:02 9.4 C 6.69 g/m*3 9.4 C 0 km/h
1340 20-06-2010 04:04:02 9.1 C 6.74 g/m*3 9.1 C 0 km/h
1341 20-06-2010 04:16:02 9.1 C 6.92 g/m*3 9.1 C 0 km/h
1342 20-06-2010 04:28:02 9.2 C 7.05 g/m*3 9.2 C 0 km/h
1343 20-06-2010 04:40:02 9.4 C 7.15 g/m*3 9.4 C 0 km/h
1344 20-06-2010 04:52:02 9.2 C 7.05 g/m*3 9.2 C 0 km/h
1345 20-06-2010 05:04:02 9.2 C 7.05 g/m*3 9.2 C 0 km/h
1346 20-06-2010 05:16:02 9.2 C 7.05 g/m*3 9.2 C 0 km/h
1347 20-06-2010 05:28:02 9.3 C 7.1 g/m*3 9.3 C 0 km/h
1348 20-06-2010 05:40:02 9.4 C 7.15 g/m*3 9.4 C 0 km/h
1349 20-06-2010 05:52:02 9.6 C 7.24 g/m*3 9.6 C 0 km/h
1350 20-06-2010 06:04:02 9.6 C 7.24 g/m*3 9.6 C 0 km/h
Sensor: Nr:Datum:Temp:Abs-Feuchte:Windchill:Wind:
Aussen-T/F 1351 20-06-2010 06:16:02 9.7 C 7.28 g/m*3 9.7 C 0 km/h
1352 20-06-2010 06:28:02 10.1 C 7.28 g/m*3 10.1 C 0 km/h
1353 20-06-2010 06:40:02 10.4 C 7.42 g/m*3 10.4 C 0 km/h
1354 20-06-2010 06:52:02 10.6 C 7.32 g/m*3 10.6 C 0 km/h
1355 20-06-2010 07:04:02 10.7 C 7.17 g/m*3 10.7 C 0 km/h
1356 20-06-2010 07:16:02 10.7 C 7.17 g/m*3 10.7 C 0 km/h
1357 20-06-2010 07:28:02 10.4 C 7.32 g/m*3 10.4 C 0 km/h
1358 20-06-2010 07:40:02 10.2 C 7.52 g/m*3 10.2 C 0 km/h
1359 20-06-2010 07:52:02 10.2 C 7.71 g/m*3 10.2 C 0 km/h
1360 20-06-2010 08:04:01 10.3 C 7.85 g/m*3 10.3 C 0 km/h
1361 20-06-2010 08:16:02 10.5 C 8.05 g/m*3 10.5 C 0 km/h
1362 20-06-2010 08:28:02 10.4 C 8 g/m*3 10.4 C 0 km/h
1363 20-06-2010 08:40:01 10.9 C 8.36 g/m*3 10.9 C 0 km/h
1364 20-06-2010 08:52:03 10.8 C 8.2 g/m*3 10.8 C 0 km/h
1365 20-06-2010 09:04:02 11.4 C 8.21 g/m*3 11.4 C 0 km/h
1366 20-06-2010 09:16:03 12.4 C 8.52 g/m*3 12.4 C 0 km/h
1367 20-06-2010 09:28:03 12.5 C 7.92 g/m*3 12.5 C 0 km/h
1368 20-06-2010 09:40:02 13 C 7.83 g/m*3 13 C 0 km/h
1369 20-06-2010 09:52:02 13.1 C 7.53 g/m*3 13.1 C 0 km/h
1370 20-06-2010 10:04:01 13.6 C 7.77 g/m*3 13.6 C 0 km/h
1371 20-06-2010 10:16:02 14 C 7.48 g/m*3 14 C 0 km/h
1372 20-06-2010 10:28:02 13.7 C 6.99 g/m*3 13.7 C 0 km/h
1373 20-06-2010 10:40:02 13.3 C 7.05 g/m*3 13.3 C 0 km/h
1374 20-06-2010 10:52:02 13.1 C 6.96 g/m*3 13.1 C 0 km/h
1375 20-06-2010 11:04:02 13 C 6.92 g/m*3 13 C 0 km/h
Sensor: Nr:Datum:Temp:Abs-Feuchte:Windchill:Wind:
Aussen-T/F 1376 20-06-2010 11:16:01 12.6 C 7.08 g/m*3 12.6 C 0 km/h
1377 20-06-2010 11:28:01 13.3 C 7.05 g/m*3 13.3 C 0 km/h
1378 20-06-2010 11:40:02 14 C 7 g/m*3 14 C 0 km/h
1379 20-06-2010 11:52:02 14.3 C 6.63 g/m*3 14.3 C 0 km/h
1380 20-06-2010 12:04:02 14.4 C 6.55 g/m*3 14.4 C 0 km/h
1381 20-06-2010 12:16:02 14.9 C 6.75 g/m*3 14.9 C 0 km/h
1382 20-06-2010 12:28:02 15.3 C 6.53 g/m*3 15.3 C 0 km/h
1383 20-06-2010 12:40:02 16.1 C 6.44 g/m*3 16.1 C 0 km/h
1384 20-06-2010 12:52:01 15.6 C 6.25 g/m*3 15.6 C 0 km/h
1385 20-06-2010 13:04:02 15.3 C 6.53 g/m*3 15.3 C 0 km/h
1386 20-06-2010 13:16:01 15.6 C 6.65 g/m*3 15.6 C 0 km/h
1387 20-06-2010 13:28:01 15.8 C 6.46 g/m*3 15.8 C 0 km/h
1388 20-06-2010 13:40:01 16.9 C 6.33 g/m*3 16.9 C 0 km/h
1389 20-06-2010 13:52:01 18.2 C 5.91 g/m*3 18.2 C 0 km/h
1390 20-06-2010 14:04:01 16.9 C 5.47 g/m*3 16.9 C 0 km/h
1391 20-06-2010 14:16:02 15.7 C 5.89 g/m*3 15.7 C 0 km/h
1392 20-06-2010 14:28:02 15.9 C 6.09 g/m*3 15.9 C 0 km/h
1393 20-06-2010 14:40:01 17.4 C 6.22 g/m*3 17.4 C 0 km/h
1394 20-06-2010 14:52:02 16.7 C 5.68 g/m*3 16.7 C 0 km/h
1395 20-06-2010 15:04:02 17.2 C 5.71 g/m*3 17.2 C 0 km/h
1396 20-06-2010 15:16:02 17.6 C 5.85 g/m*3 17.6 C 0 km/h
1397 20-06-2010 15:28:02 17.7 C 6.04 g/m*3 17.7 C 0 km/h
1398 20-06-2010 15:40:02 18.7 C 6.08 g/m*3 18.7 C 0 km/h
1399 20-06-2010 15:52:02 18.1 C 5.72 g/m*3 18.1 C 0 km/h
1400 20-06-2010 16:04:02 16.4 C 5.72 g/m*3 16.4 C 0 km/h
Sensor: Nr:Datum:Temp:Abs-Feuchte:Windchill:Wind:
Aussen-T/F 1401 20-06-2010 16:16:02 16.4 C 5.72 g/m*3 16.4 C 0 km/h
1402 20-06-2010 16:28:02 16.7 C 5.97 g/m*3 16.7 C 0 km/h
1403 20-06-2010 16:40:03 17.1 C 5.68 g/m*3 17.1 C 0 km/h
1404 20-06-2010 16:52:02 17.1 C 5.39 g/m*3 17.1 C 0 km/h
1405 20-06-2010 17:04:01 17 C 5.35 g/m*3 17 C 0 km/h
1406 20-06-2010 17:16:02 16 C 5.72 g/m*3 16 C 0 km/h
1407 20-06-2010 17:28:02 16.2 C 5.79 g/m*3 16.2 C 0 km/h
1408 20-06-2010 17:40:02 16 C 5.86 g/m*3 16 C 0 km/h
1409 20-06-2010 17:52:02 16.4 C 6.14 g/m*3 16.4 C 0 km/h
1410 20-06-2010 18:04:03 16.5 C 6.32 g/m*3 16.5 C 0 km/h
1411 20-06-2010 18:16:02 16.2 C 6.34 g/m*3 16.2 C 0 km/h
1412 20-06-2010 18:28:02 16.4 C 6.28 g/m*3 16.4 C 0 km/h
1413 20-06-2010 18:40:02 16.3 C 6.24 g/m*3 16.3 C 0 km/h
1414 20-06-2010 18:52:02 16.2 C 6.07 g/m*3 16.2 C 0 km/h
1415 20-06-2010 19:04:02 15.9 C 5.96 g/m*3 15.9 C 0 km/h
1416 20-06-2010 19:16:01 15.7 C 5.89 g/m*3 15.7 C 0 km/h
1417 20-06-2010 19:28:01 15.4 C 5.91 g/m*3 15.4 C 0 km/h
1418 20-06-2010 19:40:02 15.6 C 6.12 g/m*3 15.6 C 0 km/h
1419 20-06-2010 19:52:02 15.8 C 6.19 g/m*3 15.8 C 0 km/h
1420 20-06-2010 20:04:02 15.6 C 6.25 g/m*3 15.6 C 0 km/h
1421 20-06-2010 20:16:01 15.3 C 6.01 g/m*3 15.3 C 0 km/h
1422 20-06-2010 20:28:01 15.2 C 6.1 g/m*3 15.2 C 0 km/h
1423 20-06-2010 20:40:02 15.1 C 6.19 g/m*3 15.1 C 0 km/h
1424 20-06-2010 20:52:02 15 C 6.28 g/m*3 15 C 0 km/h
1425 20-06-2010 21:04:02 14.8 C 6.59 g/m*3 14.8 C 0 km/h
Sensor: Nr:Datum:Temp:Abs-Feuchte:Windchill:Wind:
Aussen-T/F 1426 20-06-2010 21:16:01 14.7 C 6.55 g/m*3 14.7 C 0 km/h
1427 20-06-2010 21:28:01 14.6 C 6.63 g/m*3 14.6 C 0 km/h
1428 20-06-2010 21:40:02 14.5 C 6.84 g/m*3 14.5 C 0 km/h
1429 20-06-2010 21:52:02 14.3 C 6.76 g/m*3 14.3 C 0 km/h
1430 20-06-2010 22:04:02 14.2 C 6.84 g/m*3 14.2 C 0 km/h
1431 20-06-2010 22:17:02 14 C 6.75 g/m*3 14 C 0 km/h
1432 20-06-2010 22:29:02 13.8 C 6.91 g/m*3 13.8 C 0 km/h
1433 20-06-2010 22:41:02 13.5 C 6.9 g/m*3 13.5 C 0 km/h
1434 20-06-2010 22:53:02 13.4 C 6.97 g/m*3 13.4 C 0 km/h
1435 20-06-2010 23:05:02 13.2 C 6.89 g/m*3 13.2 C 0 km/h
1436 20-06-2010 23:17:02 13 C 6.92 g/m*3 13 C 0 km/h
1437 20-06-2010 23:29:02 12.6 C 6.97 g/m*3 12.6 C 0 km/h
1438 20-06-2010 23:41:02 12.3 C 6.84 g/m*3 12.3 C 0 km/h
1439 20-06-2010 23:53:02 12.1 C 6.97 g/m*3 12.1 C 0 km/h
1440 21-06-2010 00:05:02 11.9 C 7.1 g/m*3 11.9 C 0 km/h
1441 21-06-2010 00:17:02 11.8 C 7.05 g/m*3 11.8 C 0 km/h
1442 21-06-2010 00:29:02 11.4 C 6.98 g/m*3 11.4 C 0 km/h
1443 21-06-2010 00:41:02 11.2 C 7.1 g/m*3 11.2 C 0 km/h
1444 21-06-2010 00:53:03 11.2 C 7.1 g/m*3 11.2 C 0 km/h
1445 21-06-2010 01:05:03 11.1 C 6.95 g/m*3 11.1 C 0 km/h
1446 21-06-2010 01:17:03 11.1 C 7.05 g/m*3 11.1 C 0 km/h
1447 21-06-2010 01:29:03 11 C 7.01 g/m*3 11 C 0 km/h
1448 21-06-2010 01:41:03 10.8 C 7.02 g/m*3 10.8 C 0 km/h
1449 21-06-2010 01:53:03 10.7 C 7.07 g/m*3 10.7 C 0 km/h
1450 21-06-2010 02:05:03 10.5 C 6.98 g/m*3 10.5 C 0 km/h
Sensor: Nr:Datum:Temp:Abs-Feuchte:Windchill:Wind:
Aussen-T/F 1451 21-06-2010 02:17:03 10.4 C 7.04 g/m*3 10.4 C 0 km/h
1452 21-06-2010 02:29:03 10.1 C 6.9 g/m*3 10.1 C 0 km/h
1453 21-06-2010 02:41:03 10.2 C 7.04 g/m*3 10.2 C 0 km/h
1454 21-06-2010 02:53:03 10.2 C 6.95 g/m*3 10.2 C 0 km/h
1455 21-06-2010 03:05:03 10 C 6.86 g/m*3 10 C 0 km/h
1456 21-06-2010 03:17:03 9.8 C 6.87 g/m*3 9.8 C 0 km/h
1457 21-06-2010 03:29:03 9.6 C 6.78 g/m*3 9.6 C 0 km/h
1458 21-06-2010 03:41:03 9.5 C 6.83 g/m*3 9.5 C 0 km/h
1459 21-06-2010 03:53:03 9.3 C 6.74 g/m*3 9.3 C 0 km/h
1460 21-06-2010 04:05:03 9.1 C 6.74 g/m*3 9.1 C 0 km/h
1461 21-06-2010 04:17:03 9.1 C 6.83 g/m*3 9.1 C 0 km/h
1462 21-06-2010 04:29:03 9.2 C 6.97 g/m*3 9.2 C 0 km/h
1463 21-06-2010 04:41:03 9.4 C 6.96 g/m*3 9.4 C 0 km/h
1464 21-06-2010 04:53:03 9 C 6.79 g/m*3 9 C 0 km/h
1465 21-06-2010 05:05:04 8.8 C 6.88 g/m*3 8.8 C 0 km/h
1466 21-06-2010 05:17:04 8.7 C 6.83 g/m*3 8.7 C 0 km/h
1467 21-06-2010 05:29:04 8.7 C 6.92 g/m*3 8.7 C 0 km/h
1468 21-06-2010 05:41:04 8.6 C 6.87 g/m*3 8.6 C 0 km/h
1469 21-06-2010 05:53:04 8.6 C 6.96 g/m*3 8.6 C 0 km/h
1470 21-06-2010 06:05:04 8.5 C 7 g/m*3 8.5 C 0 km/h
1471 21-06-2010 06:17:04 8.5 C 7 g/m*3 8.5 C 0 km/h
1472 21-06-2010 06:29:04 8.6 C 7.13 g/m*3 8.6 C 0 km/h
1473 21-06-2010 06:41:04 8.6 C 7.22 g/m*3 8.6 C 0 km/h
1474 21-06-2010 06:53:02 8.9 C 7.36 g/m*3 8.9 C 0 km/h
1475 21-06-2010 07:05:03 9.1 C 7.36 g/m*3 9.1 C 0 km/h
Sensor: Nr:Datum:Temp:Abs-Feuchte:Windchill:Wind:
Aussen-T/F 1476 21-06-2010 07:17:03 9.5 C 7.46 g/m*3 9.5 C 0 km/h
1477 21-06-2010 07:29:03 9.8 C 7.33 g/m*3 9.8 C 0 km/h
1478 21-06-2010 07:41:03 10.6 C 7.22 g/m*3 10.6 C 0 km/h
1479 21-06-2010 07:53:02 11.5 C 7.23 g/m*3 11.5 C 0 km/h
1480 21-06-2010 08:05:02 12.1 C 7.18 g/m*3 12.1 C 0 km/h
1481 21-06-2010 08:17:02 12.3 C 6.95 g/m*3 12.3 C 0 km/h
1482 21-06-2010 08:29:02 12.4 C 6.77 g/m*3 12.4 C 0 km/h
1483 21-06-2010 08:41:02 12.7 C 6.9 g/m*3 12.7 C 0 km/h
1484 21-06-2010 08:53:02 13.2 C 6.77 g/m*3 13.2 C 0 km/h
1485 21-06-2010 09:05:01 13.4 C 6.63 g/m*3 13.4 C 0 km/h
1486 21-06-2010 09:17:02 13.4 C 6.16 g/m*3 13.4 C 0 km/h
1487 21-06-2010 09:29:03 13.7 C 6.39 g/m*3 13.7 C 0 km/h
1488 21-06-2010 09:41:01 14.2 C 5.86 g/m*3 14.2 C 0 km/h
1489 21-06-2010 09:53:02 14 C 5.43 g/m*3 14 C 0 km/h
1490 21-06-2010 10:05:01 13.9 C 5.39 g/m*3 13.9 C 0 km/h
1491 21-06-2010 10:17:02 13.9 C 5.63 g/m*3 13.9 C 0 km/h
1492 21-06-2010 10:29:02 13.5 C 6.08 g/m*3 13.5 C 0 km/h
1493 21-06-2010 10:41:01 13.5 C 5.97 g/m*3 13.5 C 0 km/h
1494 21-06-2010 10:53:02 14 C 5.55 g/m*3 14 C 0 km/h
1495 21-06-2010 11:05:02 14.7 C 5.67 g/m*3 14.7 C 0 km/h
1496 21-06-2010 11:17:02 14.7 C 5.16 g/m*3 14.7 C 0 km/h
1497 21-06-2010 11:29:02 14.2 C 5.13 g/m*3 14.2 C 0 km/h
1498 21-06-2010 11:41:02 14.4 C 5.44 g/m*3 14.4 C 0 km/h
1499 21-06-2010 11:53:02 15.4 C 5.52 g/m*3 15.4 C 0 km/h
1500 21-06-2010 12:05:01 16.3 C 5.27 g/m*3 16.3 C 0 km/h
Sensor: Nr:Datum:Temp:Abs-Feuchte:Windchill:Wind:
Aussen-T/F 1501 21-06-2010 12:17:02 16.5 C 5.34 g/m*3 16.5 C 0 km/h
1502 21-06-2010 12:29:02 16 C 5.18 g/m*3 16 C 0 km/h
1503 21-06-2010 12:41:02 14.8 C 5.19 g/m*3 14.8 C 0 km/h
1504 21-06-2010 12:53:01 15 C 5.39 g/m*3 15 C 0 km/h
1505 21-06-2010 13:05:02 14.7 C 5.29 g/m*3 14.7 C 0 km/h
1506 21-06-2010 13:17:01 15.2 C 5.19 g/m*3 15.2 C 0 km/h
1507 21-06-2010 13:29:01 16 C 5.04 g/m*3 16 C 0 km/h
1508 21-06-2010 13:41:02 18 C 5.07 g/m*3 18 C 0 km/h
1509 21-06-2010 13:53:02 19.6 C 4.9 g/m*3 19.6 C 0 km/h
1510 21-06-2010 14:05:02 19.3 C 4.81 g/m*3 19.3 C 0 km/h
1511 21-06-2010 14:17:01 18.2 C 4.66 g/m*3 18.2 C 0 km/h
1512 21-06-2010 14:29:01 18.7 C 4.48 g/m*3 18.7 C 0 km/h
1513 21-06-2010 14:41:02 18.9 C 4.86 g/m*3 18.9 C 0 km/h
1514 21-06-2010 14:53:02 18 C 4.61 g/m*3 18 C 0 km/h
1515 21-06-2010 15:05:02 17.7 C 4.38 g/m*3 17.7 C 0 km/h
1516 21-06-2010 15:17:02 18.4 C 4.88 g/m*3 18.4 C 0 km/h
1517 21-06-2010 15:29:02 20 C 4.49 g/m*3 20 C 0 km/h
1518 21-06-2010 15:41:02 18.7 C 4.8 g/m*3 18.7 C 0 km/h
1519 21-06-2010 15:53:02 18.5 C 4.27 g/m*3 18.5 C 0 km/h
1520 21-06-2010 16:05:02 19 C 4.56 g/m*3 19 C 0 km/h
1521 21-06-2010 16:17:02 20 C 4.67 g/m*3 20 C 0 km/h
1522 21-06-2010 16:29:02 21.2 C 4.63 g/m*3 21.2 C 0 km/h
1523 21-06-2010 16:41:02 21 C 4.21 g/m*3 21 C 0 km/h
1524 21-06-2010 16:53:02 22.6 C 4.42 g/m*3 22.6 C 0 km/h
1525 21-06-2010 17:05:02 21 C 4.03 g/m*3 21 C 0 km/h
Sensor: Nr:Datum:Temp:Abs-Feuchte:Windchill:Wind:
Aussen-T/F 1526 21-06-2010 17:17:03 20.6 C 4.47 g/m*3 20.6 C 0 km/h
1527 21-06-2010 17:29:03 19.3 C 4.64 g/m*3 19.3 C 0 km/h
1528 21-06-2010 17:41:02 18.7 C 4.8 g/m*3 18.7 C 0 km/h
1529 21-06-2010 17:53:02 18.3 C 5 g/m*3 18.3 C 0 km/h
1530 21-06-2010 18:05:02 18.4 C 5.03 g/m*3 18.4 C 0 km/h
1531 21-06-2010 18:17:02 18.2 C 4.82 g/m*3 18.2 C 0 km/h
1532 21-06-2010 18:29:02 18.4 C 5.03 g/m*3 18.4 C 0 km/h
1533 21-06-2010 18:41:02 18.2 C 4.82 g/m*3 18.2 C 0 km/h
1534 21-06-2010 18:53:02 18.4 C 5.03 g/m*3 18.4 C 0 km/h
1535 21-06-2010 19:05:02 18.2 C 4.97 g/m*3 18.2 C 0 km/h
1536 21-06-2010 19:17:02 17.6 C 5.1 g/m*3 17.6 C 0 km/h
1537 21-06-2010 19:29:03 17.4 C 5.19 g/m*3 17.4 C 0 km/h
1538 21-06-2010 19:41:02 17.3 C 5.3 g/m*3 17.3 C 0 km/h
1539 21-06-2010 19:53:02 17.2 C 5.13 g/m*3 17.2 C 0 km/h
1540 21-06-2010 20:05:01 17.2 C 5.86 g/m*3 17.2 C 0 km/h
1541 21-06-2010 20:17:02 17.2 C 5.71 g/m*3 17.2 C 0 km/h
1542 21-06-2010 20:29:02 16.9 C 6.33 g/m*3 16.9 C 0 km/h
1543 21-06-2010 20:41:02 16.6 C 6.36 g/m*3 16.6 C 0 km/h
1544 21-06-2010 20:53:01 16.2 C 6.48 g/m*3 16.2 C 0 km/h
1545 21-06-2010 21:05:01 16 C 6.4 g/m*3 16 C 0 km/h
1546 21-06-2010 21:17:02 15.6 C 6.25 g/m*3 15.6 C 0 km/h
1547 21-06-2010 21:29:02 15.2 C 6.1 g/m*3 15.2 C 0 km/h
1548 21-06-2010 21:41:01 14.9 C 6.25 g/m*3 14.9 C 0 km/h
1549 21-06-2010 21:53:02 14.5 C 5.97 g/m*3 14.5 C 0 km/h
1550 21-06-2010 22:05:02 14.2 C 6.11 g/m*3 14.2 C 0 km/h
Sensor: Nr:Datum:Temp:Abs-Feuchte:Windchill:Wind:
Aussen-T/F 1551 21-06-2010 22:18:03 14 C 6.15 g/m*3 14 C 0 km/h
1552 21-06-2010 22:30:03 13.7 C 6.16 g/m*3 13.7 C 0 km/h
1553 21-06-2010 22:42:04 13.4 C 6.39 g/m*3 13.4 C 0 km/h
1554 21-06-2010 22:54:04 13.4 C 6.28 g/m*3 13.4 C 0 km/h
1555 21-06-2010 23:06:04 13.5 C 6.55 g/m*3 13.5 C 0 km/h
1556 21-06-2010 23:18:04 13.4 C 6.51 g/m*3 13.4 C 0 km/h
1557 21-06-2010 23:30:04 13.4 C 6.51 g/m*3 13.4 C 0 km/h
1558 21-06-2010 23:42:04 13.2 C 6.43 g/m*3 13.2 C 0 km/h
1559 21-06-2010 23:54:04 13.1 C 6.39 g/m*3 13.1 C 0 km/h
1560 22-06-2010 00:06:04 12.8 C 6.5 g/m*3 12.8 C 0 km/h
1561 22-06-2010 00:18:04 12.5 C 6.49 g/m*3 12.5 C 0 km/h
1562 22-06-2010 00:30:04 12.2 C 6.58 g/m*3 12.2 C 0 km/h
1563 22-06-2010 00:42:04 12.1 C 6.65 g/m*3 12.1 C 0 km/h
1564 22-06-2010 00:54:04 12.1 C 6.86 g/m*3 12.1 C 0 km/h
1565 22-06-2010 01:06:04 12.2 C 7.01 g/m*3 12.2 C 0 km/h
1566 22-06-2010 01:18:04 12.2 C 7.01 g/m*3 12.2 C 0 km/h
1567 22-06-2010 01:30:05 12.4 C 6.99 g/m*3 12.4 C 0 km/h
1568 22-06-2010 01:42:05 12.2 C 7.01 g/m*3 12.2 C 0 km/h
1569 22-06-2010 01:54:05 12.2 C 7.01 g/m*3 12.2 C 0 km/h
1570 22-06-2010 02:06:05 12.1 C 6.97 g/m*3 12.1 C 0 km/h
1571 22-06-2010 02:18:05 12.2 C 7.01 g/m*3 12.2 C 0 km/h
1572 22-06-2010 02:30:05 12 C 7.03 g/m*3 12 C 0 km/h
1573 22-06-2010 02:42:05 11.9 C 7.1 g/m*3 11.9 C 0 km/h
1574 22-06-2010 02:54:05 11.9 C 7.2 g/m*3 11.9 C 0 km/h
1575 22-06-2010 03:06:05 11.9 C 7.31 g/m*3 11.9 C 0 km/h
Sensor: Nr:Datum:Temp:Abs-Feuchte:Windchill:Wind:
Aussen-T/F 1576 22-06-2010 03:18:05 11.8 C 7.26 g/m*3 11.8 C 0 km/h
1577 22-06-2010 03:30:05 11.7 C 7.22 g/m*3 11.7 C 0 km/h
1578 22-06-2010 03:42:05 11.8 C 7.26 g/m*3 11.8 C 0 km/h
1579 22-06-2010 03:54:05 11.9 C 7.41 g/m*3 11.9 C 0 km/h
1580 22-06-2010 04:06:05 11.5 C 7.33 g/m*3 11.5 C 0 km/h
1581 22-06-2010 04:18:05 11.4 C 7.29 g/m*3 11.4 C 0 km/h
1582 22-06-2010 04:30:05 11.5 C 7.44 g/m*3 11.5 C 0 km/h
1583 22-06-2010 04:42:05 11.5 C 7.44 g/m*3 11.5 C 0 km/h
1584 22-06-2010 04:54:05 11.5 C 7.44 g/m*3 11.5 C 0 km/h
1585 22-06-2010 05:06:05 11.5 C 7.54 g/m*3 11.5 C 0 km/h
1586 22-06-2010 05:18:05 11.4 C 7.49 g/m*3 11.4 C 0 km/h
1587 22-06-2010 05:30:05 11.4 C 7.49 g/m*3 11.4 C 0 km/h
1588 22-06-2010 05:42:05 11.5 C 7.54 g/m*3 11.5 C 0 km/h
1589 22-06-2010 05:54:05 11.4 C 7.39 g/m*3 11.4 C 0 km/h
1590 22-06-2010 06:06:06 11.5 C 7.54 g/m*3 11.5 C 0 km/h
1591 22-06-2010 06:18:06 11.5 C 7.54 g/m*3 11.5 C 0 km/h
1592 22-06-2010 06:30:06 11.6 C 7.69 g/m*3 11.6 C 0 km/h
1593 22-06-2010 06:42:03 11.6 C 7.69 g/m*3 11.6 C 0 km/h
1594 22-06-2010 06:54:02 11.7 C 7.64 g/m*3 11.7 C 0 km/h
1595 22-06-2010 07:06:02 11.9 C 7.73 g/m*3 11.9 C 0 km/h
1596 22-06-2010 07:18:02 12 C 7.67 g/m*3 12 C 0 km/h
1597 22-06-2010 07:30:02 12.1 C 7.61 g/m*3 12.1 C 0 km/h
1598 22-06-2010 07:42:02 12.4 C 7.65 g/m*3 12.4 C 0 km/h
1599 22-06-2010 07:54:01 12.8 C 7.73 g/m*3 12.8 C 0 km/h
1600 22-06-2010 08:06:02 13.1 C 7.65 g/m*3 13.1 C 0 km/h
Sensor: Nr:Datum:Temp:Abs-Feuchte:Windchill:Wind:
Aussen-T/F 1601 22-06-2010 08:18:02 13 C 7.14 g/m*3 13 C 0 km/h
1602 22-06-2010 08:30:02 12.9 C 7.44 g/m*3 12.9 C 0 km/h
1603 22-06-2010 08:42:02 12.9 C 7.66 g/m*3 12.9 C 0 km/h
1604 22-06-2010 08:54:02 13.1 C 7.53 g/m*3 13.1 C 0 km/h
1605 22-06-2010 09:06:01 13.5 C 7.49 g/m*3 13.5 C 0 km/h
1606 22-06-2010 09:18:02 14.2 C 7.45 g/m*3 14.2 C 0 km/h
1607 22-06-2010 09:30:03 15.1 C 7.61 g/m*3 15.1 C 0 km/h
1608 22-06-2010 09:42:01 15.8 C 7.4 g/m*3 15.8 C 0 km/h
1609 22-06-2010 09:54:02 16.4 C 6.7 g/m*3 16.4 C 0 km/h
1610 22-06-2010 10:06:01 17.3 C 6.19 g/m*3 17.3 C 0 km/h
1611 22-06-2010 10:18:01 17.9 C 6.11 g/m*3 17.9 C 0 km/h
1612 22-06-2010 10:30:01 18.7 C 6.56 g/m*3 18.7 C 0 km/h
1613 22-06-2010 10:42:02 19.5 C 6.55 g/m*3 19.5 C 0 km/h
1614 22-06-2010 10:54:02 20.2 C 6.47 g/m*3 20.2 C 0 km/h
1615 22-06-2010 11:06:01 20.7 C 5.94 g/m*3 20.7 C 0 km/h
1616 22-06-2010 11:18:02 20.1 C 6.08 g/m*3 20.1 C 0 km/h
1617 22-06-2010 11:30:02 20.4 C 5.84 g/m*3 20.4 C 0 km/h
1618 22-06-2010 11:42:02 20.4 C 5.66 g/m*3 20.4 C 0 km/h
1619 22-06-2010 11:54:02 19.6 C 5.57 g/m*3 19.6 C 0 km/h
1620 22-06-2010 12:06:03 21.4 C 6 g/m*3 21.4 C 0 km/h
1621 22-06-2010 12:18:02 23.3 C 5.23 g/m*3 23.3 C 0 km/h
1622 22-06-2010 12:30:02 20.7 C 5.4 g/m*3 20.7 C 0 km/h
1623 22-06-2010 12:42:02 19.9 C 5.5 g/m*3 19.9 C 0 km/h
1624 22-06-2010 12:54:01 20.1 C 5.21 g/m*3 20.1 C 0 km/h
1625 22-06-2010 13:06:02 22.5 C 4.99 g/m*3 22.5 C 0 km/h
Sensor: Nr:Datum:Temp:Abs-Feuchte:Windchill:Wind:
Aussen-T/F 1626 22-06-2010 13:18:01 20.4 C 5.31 g/m*3 20.4 C 0 km/h
1627 22-06-2010 13:30:01 20.7 C 5.4 g/m*3 20.7 C 0 km/h
1628 22-06-2010 13:42:01 22.1 C 5.47 g/m*3 22.1 C 0 km/h
1629 22-06-2010 13:54:01 22.7 C 5.25 g/m*3 22.7 C 0 km/h
1630 22-06-2010 14:06:02 23 C 4.93 g/m*3 23 C 0 km/h
1631 22-06-2010 14:18:01 23.1 C 5.37 g/m*3 23.1 C 0 km/h
1632 22-06-2010 14:30:01 23.2 C 5.41 g/m*3 23.2 C 0 km/h
1633 22-06-2010 14:42:01 23.3 C 5.23 g/m*3 23.3 C 0 km/h
1634 22-06-2010 14:54:01 23.9 C 4.98 g/m*3 23.9 C 0 km/h
1635 22-06-2010 15:06:02 23.9 C 4.98 g/m*3 23.9 C 0 km/h
1636 22-06-2010 15:18:02 24.7 C 4.75 g/m*3 24.7 C 0 km/h
1637 22-06-2010 15:30:02 24.9 C 5.49 g/m*3 24.9 C 0 km/h
1638 22-06-2010 15:42:01 25 C 5.06 g/m*3 25 C 0 km/h
1639 22-06-2010 15:54:02 24.2 C 4.4 g/m*3 24.2 C 0 km/h
1640 22-06-2010 16:06:01 23.3 C 4.81 g/m*3 23.3 C 0 km/h
1641 22-06-2010 16:18:02 23.4 C 5.26 g/m*3 23.4 C 0 km/h
1642 22-06-2010 16:30:02 24.9 C 5.04 g/m*3 24.9 C 0 km/h
1643 22-06-2010 16:42:01 26 C 4.87 g/m*3 26 C 0 km/h
1644 22-06-2010 16:54:03 23.8 C 4.73 g/m*3 23.8 C 0 km/h
1645 22-06-2010 17:06:02 23.6 C 5.32 g/m*3 23.6 C 0 km/h
1646 22-06-2010 17:18:02 22.8 C 5.08 g/m*3 22.8 C 0 km/h
1647 22-06-2010 17:30:03 22.7 C 5.25 g/m*3 22.7 C 0 km/h
1648 22-06-2010 17:42:02 23.3 C 5.23 g/m*3 23.3 C 0 km/h
1649 22-06-2010 17:54:02 24.1 C 5.03 g/m*3 24.1 C 0 km/h
1650 22-06-2010 18:06:01 23.7 C 4.92 g/m*3 23.7 C 0 km/h
Sensor: Nr:Datum:Temp:Abs-Feuchte:Windchill:Wind:
Aussen-T/F 1651 22-06-2010 18:18:02 23.8 C 6.24 g/m*3 23.8 C 0 km/h
1652 22-06-2010 18:30:02 23.3 C 6.48 g/m*3 23.3 C 0 km/h
1653 22-06-2010 18:42:02 22.6 C 6.63 g/m*3 22.6 C 0 km/h
1654 22-06-2010 18:54:01 22.3 C 6.91 g/m*3 22.3 C 0 km/h
1655 22-06-2010 19:06:02 22.7 C 6.67 g/m*3 22.7 C 0 km/h
1656 22-06-2010 19:18:01 23.3 C 6.27 g/m*3 23.3 C 0 km/h
1657 22-06-2010 19:30:01 23.9 C 6.06 g/m*3 23.9 C 0 km/h
1658 22-06-2010 19:42:02 24 C 5.87 g/m*3 24 C 0 km/h
1659 22-06-2010 19:54:02 23.5 C 6.56 g/m*3 23.5 C 0 km/h
1660 22-06-2010 20:06:02 22.8 C 6.5 g/m*3 22.8 C 0 km/h
1661 22-06-2010 20:18:01 22.1 C 6.44 g/m*3 22.1 C 0 km/h
1662 22-06-2010 20:30:01 21.1 C 6.63 g/m*3 21.1 C 0 km/h
1663 22-06-2010 20:42:02 20 C 6.74 g/m*3 20 C 0 km/h
1664 22-06-2010 20:54:02 19.2 C 6.76 g/m*3 19.2 C 0 km/h
1665 22-06-2010 21:06:02 18.9 C 6.64 g/m*3 18.9 C 0 km/h
1666 22-06-2010 21:18:01 18.3 C 6.41 g/m*3 18.3 C 0 km/h
1667 22-06-2010 21:30:01 18 C 6.45 g/m*3 18 C 0 km/h
1668 22-06-2010 21:42:02 17.6 C 6.45 g/m*3 17.6 C 0 km/h
1669 22-06-2010 21:54:02 17.3 C 6.33 g/m*3 17.3 C 0 km/h
1670 22-06-2010 22:06:02 16.8 C 6.72 g/m*3 16.8 C 0 km/h
1671 22-06-2010 22:18:02 16.7 C 6.82 g/m*3 16.7 C 0 km/h
1672 22-06-2010 22:30:02 16.3 C 6.8 g/m*3 16.3 C 0 km/h
1673 22-06-2010 22:42:02 16 C 6.81 g/m*3 16 C 0 km/h
1674 22-06-2010 22:55:05 15.8 C 6.87 g/m*3 15.8 C 0 km/h
1675 22-06-2010 23:07:05 15.5 C 7.01 g/m*3 15.5 C 0 km/h
Sensor: Nr:Datum:Temp:Abs-Feuchte:Windchill:Wind:
Aussen-T/F 1676 22-06-2010 23:19:05 15.2 C 6.88 g/m*3 15.2 C 0 km/h
1677 22-06-2010 23:31:05 14.9 C 6.88 g/m*3 14.9 C 0 km/h
1678 22-06-2010 23:43:05 14.7 C 7.05 g/m*3 14.7 C 0 km/h
1679 22-06-2010 23:55:05 14.6 C 7.13 g/m*3 14.6 C 0 km/h

Legende:
   Min
   Max


Maximal/Minimal-Werte vom 09.06.2010 - 22.06.2010

Sensor Min Max Avg
Temp
(Aussen-T/F)
8.5 °C
21-06-2010  06:05:04
31.7 °C
10-06-2010  19:07:02
18.01 °C
Abs-Feuchte
(Aussen-T/F)
4.03 g/m*3
21-06-2010  17:05:02
14.76 g/m*3
10-06-2010  10:07:02
8.14 g/m*3
Windchill
(Aussen-T/F)
8.5 C
21-06-2010  06:05:04
31.7 C
10-06-2010  19:07:02
18 C

Die Daten stammen von einer Davis Vantage Pro 2 Wetter-Station und werden unter Linux mit der Software wview2wettercgi und aufbereitet. Alle Angaben erfolgen ohne Gewähr für ihre Vollständigkeit oder Richtigkeit.
Kontakt: Rainer Krienke krienke@uni-koblenz.de . Meine Webseiten an der Uni Koblenz oder privat.
Version: $Revision: 0.78 $